<?xml version='1.0' encoding='UTF-8'?><gpx version="1.1" creator="JPX - https://github.com/jenetics/jpx" xmlns="http://www.topografix.com/GPX/1/1"><trk><trkseg><trkpt lat="45.549896648854386" lon="10.419904228948436"><ele>190.0</ele><time>2026-04-30T14:08:29Z</time></trkpt><trkpt lat="45.54995514406187" lon="10.419855403800407"><ele>190.0</ele><time>2026-04-30T14:08:32Z</time></trkpt><trkpt lat="45.55000298845327" lon="10.41996768646004"><ele>190.0</ele><time>2026-04-30T14:08:35Z</time></trkpt><trkpt lat="45.55006225415014" lon="10.419890553700267"><ele>190.0</ele><time>2026-04-30T14:08:41Z</time></trkpt><trkpt lat="45.55013449239258" lon="10.419779114203928"><ele>190.0</ele><time>2026-04-30T14:08:43Z</time></trkpt><trkpt lat="45.55020359626383" lon="10.419691446459982"><ele>190.0</ele><time>2026-04-30T14:08:45Z</time></trkpt><trkpt lat="45.5502693265207" lon="10.419599232250926"><ele>189.8</ele><time>2026-04-30T14:08:47Z</time></trkpt><trkpt lat="45.55033987833849" lon="10.419496659692745"><ele>189.6</ele><time>2026-04-30T14:08:49Z</time></trkpt><trkpt lat="45.550406413506884" lon="10.419399436972"><ele>189.39999999999998</ele><time>2026-04-30T14:08:51Z</time></trkpt><trkpt lat="45.55048385548148" lon="10.419283361777198"><ele>189.2</ele><time>2026-04-30T14:08:53Z</time></trkpt><trkpt lat="45.550558449731696" lon="10.419175033966653"><ele>189.0</ele><time>2026-04-30T14:08:55Z</time></trkpt><trkpt lat="45.55063682866739" lon="10.419038899716465"><ele>189.0</ele><time>2026-04-30T14:08:57Z</time></trkpt><trkpt lat="45.55071078255936" lon="10.418923885267416"><ele>189.0</ele><time>2026-04-30T14:08:59Z</time></trkpt><trkpt lat="45.550785347509546" lon="10.418804430817723"><ele>189.0</ele><time>2026-04-30T14:09:01Z</time></trkpt><trkpt lat="45.5508562630509" lon="10.418704077624009"><ele>189.0</ele><time>2026-04-30T14:09:03Z</time></trkpt><trkpt lat="45.5509256062972" lon="10.418612902104277"><ele>189.0</ele><time>2026-04-30T14:09:05Z</time></trkpt><trkpt lat="45.550983704872884" lon="10.418522852727664"><ele>189.2</ele><time>2026-04-30T14:09:07Z</time></trkpt><trkpt lat="45.551049284865734" lon="10.418408092076001"><ele>189.39999999999998</ele><time>2026-04-30T14:09:09Z</time></trkpt><trkpt lat="45.551117918618985" lon="10.418327066932122"><ele>189.6</ele><time>2026-04-30T14:09:11Z</time></trkpt><trkpt lat="45.551184472083186" lon="10.418239781063162"><ele>189.8</ele><time>2026-04-30T14:09:13Z</time></trkpt><trkpt lat="45.55124058626289" lon="10.418151994752902"><ele>190.0</ele><time>2026-04-30T14:09:15Z</time></trkpt><trkpt lat="45.55130352752155" lon="10.41805872813619"><ele>189.8</ele><time>2026-04-30T14:09:17Z</time></trkpt><trkpt lat="45.55135055027888" lon="10.417954533818156"><ele>189.6</ele><time>2026-04-30T14:09:19Z</time></trkpt><trkpt lat="45.55140808615566" lon="10.417858742209214"><ele>189.39999999999998</ele><time>2026-04-30T14:09:21Z</time></trkpt><trkpt lat="45.55147507857185" lon="10.41773692269598"><ele>189.2</ele><time>2026-04-30T14:09:23Z</time></trkpt><trkpt lat="45.55152286821753" lon="10.417606777957475"><ele>189.0</ele><time>2026-04-30T14:09:25Z</time></trkpt><trkpt lat="45.551557517168426" lon="10.417530342784916"><ele>189.0</ele><time>2026-04-30T14:09:26Z</time></trkpt><trkpt lat="45.55157808798314" lon="10.417426088956745"><ele>189.0</ele><time>2026-04-30T14:09:27Z</time></trkpt><trkpt lat="45.55158590343501" lon="10.417264625135335"><ele>189.0</ele><time>2026-04-30T14:09:29Z</time></trkpt><trkpt lat="45.55161133546485" lon="10.417109653208096"><ele>189.0</ele><time>2026-04-30T14:09:31Z</time></trkpt><trkpt lat="45.5516374679585" lon="10.416971453791676"><ele>189.0</ele><time>2026-04-30T14:09:33Z</time></trkpt><trkpt lat="45.55164777721861" lon="10.416837223909587"><ele>188.5</ele><time>2026-04-30T14:09:35Z</time></trkpt><trkpt lat="45.55166875696772" lon="10.416717068077231"><ele>188.0</ele><time>2026-04-30T14:09:37Z</time></trkpt><trkpt lat="45.55171122089979" lon="10.41660767425977"><ele>187.5</ele><time>2026-04-30T14:09:39Z</time></trkpt><trkpt lat="45.551709372679454" lon="10.416509566319972"><ele>187.0</ele><time>2026-04-30T14:09:41Z</time></trkpt><trkpt lat="45.55169244838285" lon="10.416401433042386"><ele>186.5</ele><time>2026-04-30T14:09:43Z</time></trkpt><trkpt lat="45.55160184123737" lon="10.416381146663687"><ele>186.0</ele><time>2026-04-30T14:09:44Z</time></trkpt><trkpt lat="45.55152390171685" lon="10.41631877264452"><ele>186.0</ele><time>2026-04-30T14:09:46Z</time></trkpt><trkpt lat="45.55143224538883" lon="10.416263933499645"><ele>186.0</ele><time>2026-04-30T14:09:48Z</time></trkpt><trkpt lat="45.55134198153069" lon="10.416206661238787"><ele>186.0</ele><time>2026-04-30T14:09:50Z</time></trkpt><trkpt lat="45.5512423619121" lon="10.41615392333465"><ele>186.0</ele><time>2026-04-30T14:09:52Z</time></trkpt><trkpt lat="45.551145415110376" lon="10.416085635085334"><ele>186.0</ele><time>2026-04-30T14:09:54Z</time></trkpt><trkpt lat="45.551032107719216" lon="10.416012284667286"><ele>186.14285714285717</ele><time>2026-04-30T14:09:56Z</time></trkpt><trkpt lat="45.550963100721575" lon="10.415968516546016"><ele>186.28571428571428</ele><time>2026-04-30T14:09:57Z</time></trkpt><trkpt lat="45.55089600265687" lon="10.415931260619525"><ele>186.42857142857144</ele><time>2026-04-30T14:09:58Z</time></trkpt><trkpt lat="45.55082007264789" lon="10.415893985870104"><ele>186.57142857142858</ele><time>2026-04-30T14:09:59Z</time></trkpt><trkpt lat="45.55075730084235" lon="10.415854707845243"><ele>186.71428571428572</ele><time>2026-04-30T14:10:00Z</time></trkpt><trkpt lat="45.55069086259536" lon="10.41581688261517"><ele>186.85714285714286</ele><time>2026-04-30T14:10:01Z</time></trkpt><trkpt lat="45.55063116929061" lon="10.415766065480131"><ele>187.0</ele><time>2026-04-30T14:10:02Z</time></trkpt><trkpt lat="45.550571683010666" lon="10.415714624856099"><ele>187.0</ele><time>2026-04-30T14:10:03Z</time></trkpt><trkpt lat="45.55051665058302" lon="10.415661747542153"><ele>187.0</ele><time>2026-04-30T14:10:04Z</time></trkpt><trkpt lat="45.55046108720639" lon="10.415599178884644"><ele>187.0</ele><time>2026-04-30T14:10:05Z</time></trkpt><trkpt lat="45.55041204580235" lon="10.415541234810467"><ele>187.0</ele><time>2026-04-30T14:10:06Z</time></trkpt><trkpt lat="45.550359655209256" lon="10.415481363824153"><ele>187.0</ele><time>2026-04-30T14:10:07Z</time></trkpt><trkpt lat="45.55030655572294" lon="10.415407768332633"><ele>187.0</ele><time>2026-04-30T14:10:08Z</time></trkpt><trkpt lat="45.55024967239805" lon="10.415345588787075"><ele>187.0</ele><time>2026-04-30T14:10:09Z</time></trkpt><trkpt lat="45.55020408627783" lon="10.415266620420834"><ele>186.7142857142857</ele><time>2026-04-30T14:10:10Z</time></trkpt><trkpt lat="45.55015267655928" lon="10.415203128942784"><ele>186.42857142857144</ele><time>2026-04-30T14:10:11Z</time></trkpt><trkpt lat="45.5501010139138" lon="10.415137654766365"><ele>186.14285714285714</ele><time>2026-04-30T14:10:12Z</time></trkpt><trkpt lat="45.55004809329032" lon="10.415067679745"><ele>185.85714285714283</ele><time>2026-04-30T14:10:13Z</time></trkpt><trkpt lat="45.54998335538868" lon="10.415011404083655"><ele>185.57142857142856</ele><time>2026-04-30T14:10:14Z</time></trkpt><trkpt lat="45.54993960437216" lon="10.414941839699575"><ele>185.28571428571428</ele><time>2026-04-30T14:10:15Z</time></trkpt><trkpt lat="45.549886285316504" lon="10.414857545766656"><ele>185.0</ele><time>2026-04-30T14:10:16Z</time></trkpt><trkpt lat="45.54982164557676" lon="10.414770524870784"><ele>185.0</ele><time>2026-04-30T14:10:17Z</time></trkpt><trkpt lat="45.54976503538687" lon="10.414679876287305"><ele>185.0</ele><time>2026-04-30T14:10:18Z</time></trkpt><trkpt lat="45.54970650237429" lon="10.414587197067195"><ele>185.0</ele><time>2026-04-30T14:10:19Z</time></trkpt><trkpt lat="45.54965391185411" lon="10.414508206482473"><ele>185.0</ele><time>2026-04-30T14:10:20Z</time></trkpt><trkpt lat="45.54960394186467" lon="10.414437487079645"><ele>185.0</ele><time>2026-04-30T14:10:21Z</time></trkpt><trkpt lat="45.549550677828215" lon="10.414365762761289"><ele>185.0</ele><time>2026-04-30T14:10:22Z</time></trkpt><trkpt lat="45.54950102078354" lon="10.414294697159576"><ele>185.0</ele><time>2026-04-30T14:10:23Z</time></trkpt><trkpt lat="45.549451994603174" lon="10.414222764085142"><ele>185.0</ele><time>2026-04-30T14:10:24Z</time></trkpt><trkpt lat="45.54940078729972" lon="10.414155793729716"><ele>185.0</ele><time>2026-04-30T14:10:25Z</time></trkpt><trkpt lat="45.54931424062686" lon="10.414025377845235"><ele>185.0</ele><time>2026-04-30T14:10:27Z</time></trkpt><trkpt lat="45.54924334683358" lon="10.413902596234303"><ele>185.0</ele><time>2026-04-30T14:10:29Z</time></trkpt><trkpt lat="45.549164908591045" lon="10.413788579236343"><ele>184.6</ele><time>2026-04-30T14:10:31Z</time></trkpt><trkpt lat="45.549094316555696" lon="10.4136878493355"><ele>184.2</ele><time>2026-04-30T14:10:33Z</time></trkpt><trkpt lat="45.54901671947791" lon="10.413596798577274"><ele>183.8</ele><time>2026-04-30T14:10:35Z</time></trkpt><trkpt lat="45.548946711774946" lon="10.413500879856203"><ele>183.4</ele><time>2026-04-30T14:10:37Z</time></trkpt><trkpt lat="45.54885104063851" lon="10.413418886426399"><ele>183.0</ele><time>2026-04-30T14:10:39Z</time></trkpt><trkpt lat="45.548748925761466" lon="10.41333543018504"><ele>183.0</ele><time>2026-04-30T14:10:41Z</time></trkpt><trkpt lat="45.548661128381035" lon="10.413262626266574"><ele>183.0</ele><time>2026-04-30T14:10:43Z</time></trkpt><trkpt lat="45.54858772390139" lon="10.413191196805458"><ele>183.0</ele><time>2026-04-30T14:10:45Z</time></trkpt><trkpt lat="45.54850198873914" lon="10.413102748247484"><ele>183.0</ele><time>2026-04-30T14:10:47Z</time></trkpt><trkpt lat="45.548429864167964" lon="10.413009745039961"><ele>183.0</ele><time>2026-04-30T14:10:49Z</time></trkpt><trkpt lat="45.54836138470969" lon="10.412941609655158"><ele>183.0</ele><time>2026-04-30T14:10:51Z</time></trkpt><trkpt lat="45.54828785413014" lon="10.412883693693042"><ele>183.0</ele><time>2026-04-30T14:10:53Z</time></trkpt><trkpt lat="45.54822645221241" lon="10.41275885385503"><ele>183.0</ele><time>2026-04-30T14:10:55Z</time></trkpt><trkpt lat="45.54816414210555" lon="10.412652236261428"><ele>183.0</ele><time>2026-04-30T14:10:57Z</time></trkpt><trkpt lat="45.548119401698266" lon="10.412587614821977"><ele>183.0</ele><time>2026-04-30T14:10:58Z</time></trkpt><trkpt lat="45.54804691087455" lon="10.412466999216615"><ele>183.0</ele><time>2026-04-30T14:11:00Z</time></trkpt><trkpt lat="45.54797559850683" lon="10.412366173226483"><ele>183.0</ele><time>2026-04-30T14:11:02Z</time></trkpt><trkpt lat="45.547907846528254" lon="10.412271835891437"><ele>183.0</ele><time>2026-04-30T14:11:04Z</time></trkpt><trkpt lat="45.547842988479836" lon="10.412189964716362"><ele>183.0</ele><time>2026-04-30T14:11:06Z</time></trkpt><trkpt lat="45.5477783531066" lon="10.41209386778743"><ele>183.0</ele><time>2026-04-30T14:11:08Z</time></trkpt><trkpt lat="45.54768432149453" lon="10.411993712520957"><ele>183.2</ele><time>2026-04-30T14:11:10Z</time></trkpt><trkpt lat="45.54761606415849" lon="10.41186736895684"><ele>183.4</ele><time>2026-04-30T14:11:12Z</time></trkpt><trkpt lat="45.54753676078046" lon="10.411763601723392"><ele>183.6</ele><time>2026-04-30T14:11:14Z</time></trkpt><trkpt lat="45.547472035081235" lon="10.41165921095649"><ele>183.79999999999998</ele><time>2026-04-30T14:11:16Z</time></trkpt><trkpt lat="45.54740745613606" lon="10.41157245150686"><ele>184.0</ele><time>2026-04-30T14:11:18Z</time></trkpt><trkpt lat="45.547345410144224" lon="10.411478942408754"><ele>184.0</ele><time>2026-04-30T14:11:20Z</time></trkpt><trkpt lat="45.5472867098264" lon="10.411402696591276"><ele>184.0</ele><time>2026-04-30T14:11:22Z</time></trkpt><trkpt lat="45.547230846204826" lon="10.411323676608186"><ele>184.0</ele><time>2026-04-30T14:11:24Z</time></trkpt><trkpt lat="45.54715459900296" lon="10.411253176925886"><ele>184.0</ele><time>2026-04-30T14:11:26Z</time></trkpt><trkpt lat="45.547082313729696" lon="10.411184419049071"><ele>184.0</ele><time>2026-04-30T14:11:28Z</time></trkpt><trkpt lat="45.5470108440384" lon="10.41109751493714"><ele>184.0</ele><time>2026-04-30T14:11:30Z</time></trkpt><trkpt lat="45.54694687852815" lon="10.411006206013555"><ele>183.39999999999998</ele><time>2026-04-30T14:11:32Z</time></trkpt><trkpt lat="45.54687330495493" lon="10.410909383632296"><ele>182.8</ele><time>2026-04-30T14:11:34Z</time></trkpt><trkpt lat="45.54680142119551" lon="10.41080695229871"><ele>182.2</ele><time>2026-04-30T14:11:36Z</time></trkpt><trkpt lat="45.54673113604671" lon="10.410703131709079"><ele>181.60000000000002</ele><time>2026-04-30T14:11:38Z</time></trkpt><trkpt lat="45.54667342421424" lon="10.410602235571805"><ele>181.0</ele><time>2026-04-30T14:11:40Z</time></trkpt><trkpt lat="45.54661549887002" lon="10.410510639134065"><ele>181.0</ele><time>2026-04-30T14:11:42Z</time></trkpt><trkpt lat="45.54655920233006" lon="10.410424402716652"><ele>181.0</ele><time>2026-04-30T14:11:44Z</time></trkpt><trkpt lat="45.54650829018011" lon="10.410351573980401"><ele>181.0</ele><time>2026-04-30T14:11:46Z</time></trkpt><trkpt lat="45.54648992904448" lon="10.410259918012324"><ele>181.0</ele><time>2026-04-30T14:11:48Z</time></trkpt><trkpt lat="45.54652613175318" lon="10.410173504851747"><ele>181.0</ele><time>2026-04-30T14:11:50Z</time></trkpt><trkpt lat="45.546591784645074" lon="10.410097377888935"><ele>181.0</ele><time>2026-04-30T14:11:52Z</time></trkpt><trkpt lat="45.54666579640788" lon="10.410017743903285"><ele>181.0</ele><time>2026-04-30T14:11:54Z</time></trkpt><trkpt lat="45.54674629023951" lon="10.409928246942817"><ele>181.0</ele><time>2026-04-30T14:11:56Z</time></trkpt><trkpt lat="45.546825071740294" lon="10.409832872126277"><ele>181.0</ele><time>2026-04-30T14:11:58Z</time></trkpt><trkpt lat="45.546907581864396" lon="10.409733042694768"><ele>181.0</ele><time>2026-04-30T14:12:00Z</time></trkpt><trkpt lat="45.54699532649163" lon="10.409629931361978"><ele>181.0</ele><time>2026-04-30T14:12:02Z</time></trkpt><trkpt lat="45.547088245319586" lon="10.409518600009495"><ele>181.20000000000002</ele><time>2026-04-30T14:12:04Z</time></trkpt><trkpt lat="45.54717093700078" lon="10.409407436210412"><ele>181.4</ele><time>2026-04-30T14:12:06Z</time></trkpt><trkpt lat="45.54726170179964" lon="10.409303997068731"><ele>181.6</ele><time>2026-04-30T14:12:08Z</time></trkpt><trkpt lat="45.54735540411417" lon="10.409184401833361"><ele>181.8</ele><time>2026-04-30T14:12:10Z</time></trkpt><trkpt lat="45.54740954414618" lon="10.409115951149511"><ele>182.0</ele><time>2026-04-30T14:12:11Z</time></trkpt><trkpt lat="45.547465025126236" lon="10.409053193549463"><ele>182.0</ele><time>2026-04-30T14:12:12Z</time></trkpt><trkpt lat="45.54751831923787" lon="10.408993609112148"><ele>182.0</ele><time>2026-04-30T14:12:13Z</time></trkpt><trkpt lat="45.547611327420036" lon="10.408878587408791"><ele>182.0</ele><time>2026-04-30T14:12:15Z</time></trkpt><trkpt lat="45.54770028209386" lon="10.408770018076602"><ele>182.0</ele><time>2026-04-30T14:12:17Z</time></trkpt><trkpt lat="45.54777898706976" lon="10.408663898451195"><ele>182.0</ele><time>2026-04-30T14:12:19Z</time></trkpt><trkpt lat="45.547852331509134" lon="10.408572088580721"><ele>181.66666666666666</ele><time>2026-04-30T14:12:21Z</time></trkpt><trkpt lat="45.54793815709505" lon="10.4084629891329"><ele>181.33333333333331</ele><time>2026-04-30T14:12:23Z</time></trkpt><trkpt lat="45.54801681470217" lon="10.408360523174046"><ele>181.0</ele><time>2026-04-30T14:12:25Z</time></trkpt><trkpt lat="45.5480618403639" lon="10.408293131076555"><ele>180.66666666666666</ele><time>2026-04-30T14:12:26Z</time></trkpt><trkpt lat="45.54811358261194" lon="10.408232647354678"><ele>180.33333333333334</ele><time>2026-04-30T14:12:27Z</time></trkpt><trkpt lat="45.54816412534499" lon="10.40815856620048"><ele>180.0</ele><time>2026-04-30T14:12:28Z</time></trkpt><trkpt lat="45.54821812565736" lon="10.408090573996814"><ele>180.0</ele><time>2026-04-30T14:12:29Z</time></trkpt><trkpt lat="45.54828064287386" lon="10.408020845170345"><ele>180.0</ele><time>2026-04-30T14:12:30Z</time></trkpt><trkpt lat="45.54834384541092" lon="10.407948293438658"><ele>180.0</ele><time>2026-04-30T14:12:31Z</time></trkpt><trkpt lat="45.548405437603414" lon="10.407882349487295"><ele>180.0</ele><time>2026-04-30T14:12:32Z</time></trkpt><trkpt lat="45.54845675240377" lon="10.407816483755115"><ele>180.0</ele><time>2026-04-30T14:12:33Z</time></trkpt><trkpt lat="45.54851007427004" lon="10.407750012454224"><ele>180.0</ele><time>2026-04-30T14:12:34Z</time></trkpt><trkpt lat="45.54856120781691" lon="10.407682174130786"><ele>180.0</ele><time>2026-04-30T14:12:35Z</time></trkpt><trkpt lat="45.548607743303556" lon="10.407616344434203"><ele>180.25</ele><time>2026-04-30T14:12:36Z</time></trkpt><trkpt lat="45.54870145084659" lon="10.407495460876115"><ele>180.5</ele><time>2026-04-30T14:12:38Z</time></trkpt><trkpt lat="45.548792886356175" lon="10.407379549082085"><ele>180.75</ele><time>2026-04-30T14:12:40Z</time></trkpt><trkpt lat="45.54888270375495" lon="10.407273513272651"><ele>181.0</ele><time>2026-04-30T14:12:42Z</time></trkpt><trkpt lat="45.54896526071988" lon="10.407163935611116"><ele>180.8</ele><time>2026-04-30T14:12:44Z</time></trkpt><trkpt lat="45.54904403975626" lon="10.40705198789351"><ele>180.60000000000002</ele><time>2026-04-30T14:12:46Z</time></trkpt><trkpt lat="45.54912634047718" lon="10.4069253986234"><ele>180.4</ele><time>2026-04-30T14:12:48Z</time></trkpt><trkpt lat="45.54921398165396" lon="10.40679661126233"><ele>180.2</ele><time>2026-04-30T14:12:50Z</time></trkpt><trkpt lat="45.54925826355171" lon="10.406728754632388"><ele>180.0</ele><time>2026-04-30T14:12:51Z</time></trkpt><trkpt lat="45.549308392663555" lon="10.406661127914846"><ele>180.0</ele><time>2026-04-30T14:12:52Z</time></trkpt><trkpt lat="45.54935615934632" lon="10.406593886336008"><ele>180.0</ele><time>2026-04-30T14:12:53Z</time></trkpt><trkpt lat="45.54941054568237" lon="10.406520382593547"><ele>180.0</ele><time>2026-04-30T14:12:54Z</time></trkpt><trkpt lat="45.549463550631295" lon="10.406442178339931"><ele>180.0</ele><time>2026-04-30T14:12:55Z</time></trkpt><trkpt lat="45.549513994181005" lon="10.406360432624782"><ele>180.0</ele><time>2026-04-30T14:12:56Z</time></trkpt><trkpt lat="45.54956820014324" lon="10.406279907557426"><ele>180.0</ele><time>2026-04-30T14:12:57Z</time></trkpt><trkpt lat="45.549620562947936" lon="10.406195009063309"><ele>180.7142857142857</ele><time>2026-04-30T14:12:58Z</time></trkpt><trkpt lat="45.54967482643973" lon="10.406111695834142"><ele>181.42857142857144</ele><time>2026-04-30T14:12:59Z</time></trkpt><trkpt lat="45.549727931541355" lon="10.406035991289752"><ele>182.14285714285714</ele><time>2026-04-30T14:13:00Z</time></trkpt><trkpt lat="45.54977991321385" lon="10.4059594953257"><ele>182.85714285714283</ele><time>2026-04-30T14:13:01Z</time></trkpt><trkpt lat="45.549835258472726" lon="10.405888124483443"><ele>183.57142857142856</ele><time>2026-04-30T14:13:02Z</time></trkpt><trkpt lat="45.5498884397975" lon="10.40581623176226"><ele>184.28571428571428</ele><time>2026-04-30T14:13:03Z</time></trkpt><trkpt lat="45.549938395610916" lon="10.40575967224415"><ele>185.0</ele><time>2026-04-30T14:13:04Z</time></trkpt><trkpt lat="45.54998912787908" lon="10.405703118877069"><ele>185.0</ele><time>2026-04-30T14:13:05Z</time></trkpt><trkpt lat="45.55004579946958" lon="10.405652647136794"><ele>185.0</ele><time>2026-04-30T14:13:06Z</time></trkpt><trkpt lat="45.55013847882878" lon="10.405551392295594"><ele>185.0</ele><time>2026-04-30T14:13:08Z</time></trkpt><trkpt lat="45.550226811408585" lon="10.4054527709566"><ele>185.0</ele><time>2026-04-30T14:13:10Z</time></trkpt><trkpt lat="45.55031640550099" lon="10.40537675157845"><ele>185.0</ele><time>2026-04-30T14:13:12Z</time></trkpt><trkpt lat="45.55039476475376" lon="10.405287252444849"><ele>184.8</ele><time>2026-04-30T14:13:14Z</time></trkpt><trkpt lat="45.55046773410853" lon="10.405191058723421"><ele>184.6</ele><time>2026-04-30T14:13:16Z</time></trkpt><trkpt lat="45.55053958997122" lon="10.405096079398792"><ele>184.39999999999998</ele><time>2026-04-30T14:13:18Z</time></trkpt><trkpt lat="45.55060939595918" lon="10.404987969014929"><ele>184.2</ele><time>2026-04-30T14:13:20Z</time></trkpt><trkpt lat="45.55066652936617" lon="10.404860530519729"><ele>184.0</ele><time>2026-04-30T14:13:22Z</time></trkpt><trkpt lat="45.550729746576394" lon="10.404724602535856"><ele>184.0</ele><time>2026-04-30T14:13:24Z</time></trkpt><trkpt lat="45.550791472768786" lon="10.404589917432217"><ele>184.0</ele><time>2026-04-30T14:13:26Z</time></trkpt><trkpt lat="45.550850642754234" lon="10.40446406684626"><ele>184.0</ele><time>2026-04-30T14:13:28Z</time></trkpt><trkpt lat="45.55107716473175" lon="10.404554156240092"><ele>184.0</ele><time>2026-04-30T14:13:30Z</time></trkpt><trkpt lat="45.55114451688544" lon="10.4044759904926"><ele>184.0</ele><time>2026-04-30T14:13:32Z</time></trkpt><trkpt lat="45.55121278305251" lon="10.40440546418703"><ele>184.0</ele><time>2026-04-30T14:13:34Z</time></trkpt><trkpt lat="45.55129147537731" lon="10.404326297202228"><ele>184.0</ele><time>2026-04-30T14:13:36Z</time></trkpt><trkpt lat="45.55136106946727" lon="10.404256283327372"><ele>184.0</ele><time>2026-04-30T14:13:38Z</time></trkpt><trkpt lat="45.55143364251874" lon="10.404183255244222"><ele>184.0</ele><time>2026-04-30T14:13:40Z</time></trkpt><trkpt lat="45.551237029022225" lon="10.40367317658757"><ele>184.33333333333334</ele><time>2026-04-30T14:13:41Z</time></trkpt><trkpt lat="45.551292288081896" lon="10.4035764046094"><ele>184.66666666666669</ele><time>2026-04-30T14:13:43Z</time></trkpt><trkpt lat="45.55135586646846" lon="10.403499257138433"><ele>185.0</ele><time>2026-04-30T14:13:45Z</time></trkpt><trkpt lat="45.5514077452488" lon="10.403410289987498"><ele>185.33333333333334</ele><time>2026-04-30T14:13:47Z</time></trkpt><trkpt lat="45.55147441934871" lon="10.403331457014286"><ele>185.66666666666666</ele><time>2026-04-30T14:13:49Z</time></trkpt><trkpt lat="45.55153283115688" lon="10.403238931147772"><ele>186.0</ele><time>2026-04-30T14:13:51Z</time></trkpt><trkpt lat="45.55159755528495" lon="10.403134941544835"><ele>186.0</ele><time>2026-04-30T14:13:53Z</time></trkpt><trkpt lat="45.551680355979315" lon="10.403058791822971"><ele>186.0</ele><time>2026-04-30T14:13:55Z</time></trkpt><trkpt lat="45.551743842838555" lon="10.4029852543093"><ele>186.0</ele><time>2026-04-30T14:13:57Z</time></trkpt><trkpt lat="45.55181358764459" lon="10.402904199890907"><ele>186.0</ele><time>2026-04-30T14:13:59Z</time></trkpt><trkpt lat="45.55188013621241" lon="10.402852062687241"><ele>186.0</ele><time>2026-04-30T14:14:01Z</time></trkpt><trkpt lat="45.55193410674282" lon="10.40278898611789"><ele>186.0</ele><time>2026-04-30T14:14:20Z</time></trkpt><trkpt lat="45.55202205573647" lon="10.402716061406728"><ele>185.33333333333334</ele><time>2026-04-30T14:14:23Z</time></trkpt><trkpt lat="45.55208168108784" lon="10.40265415889751"><ele>184.66666666666666</ele><time>2026-04-30T14:14:25Z</time></trkpt><trkpt lat="45.552143222009306" lon="10.402585128464718"><ele>184.0</ele><time>2026-04-30T14:14:27Z</time></trkpt><trkpt lat="45.55219705521325" lon="10.402522788767955"><ele>183.33333333333331</ele><time>2026-04-30T14:14:29Z</time></trkpt><trkpt lat="45.5522532102473" lon="10.402453068306038"><ele>182.66666666666666</ele><time>2026-04-30T14:14:31Z</time></trkpt><trkpt lat="45.55233898147937" lon="10.402366210069276"><ele>182.0</ele><time>2026-04-30T14:14:33Z</time></trkpt><trkpt lat="45.55240438276668" lon="10.40227543672179"><ele>182.0</ele><time>2026-04-30T14:14:35Z</time></trkpt><trkpt lat="45.55248560178594" lon="10.402185357969547"><ele>182.0</ele><time>2026-04-30T14:14:37Z</time></trkpt><trkpt lat="45.5525573263803" lon="10.402098501383913"><ele>182.0</ele><time>2026-04-30T14:14:39Z</time></trkpt><trkpt lat="45.55262771685457" lon="10.402018320509171"><ele>182.0</ele><time>2026-04-30T14:14:41Z</time></trkpt><trkpt lat="45.552691513584726" lon="10.401935535511248"><ele>182.0</ele><time>2026-04-30T14:14:43Z</time></trkpt><trkpt lat="45.552753390579184" lon="10.401852945403899"><ele>182.0</ele><time>2026-04-30T14:14:45Z</time></trkpt><trkpt lat="45.55282671402717" lon="10.401762654973954"><ele>182.0</ele><time>2026-04-30T14:14:47Z</time></trkpt><trkpt lat="45.55287986200398" lon="10.401706050996863"><ele>182.0</ele><time>2026-04-30T14:14:48Z</time></trkpt><trkpt lat="45.55292722742024" lon="10.401645322559466"><ele>182.0</ele><time>2026-04-30T14:14:49Z</time></trkpt><trkpt lat="45.55297863758015" lon="10.401574590999218"><ele>182.0</ele><time>2026-04-30T14:14:50Z</time></trkpt><trkpt lat="45.55306309946427" lon="10.401463965332159"><ele>182.0</ele><time>2026-04-30T14:14:52Z</time></trkpt><trkpt lat="45.55315338957283" lon="10.401377359700462"><ele>183.0</ele><time>2026-04-30T14:14:54Z</time></trkpt><trkpt lat="45.55320152155823" lon="10.401304039351098"><ele>184.0</ele><time>2026-04-30T14:14:56Z</time></trkpt><trkpt lat="45.553199009580126" lon="10.401174756530327"><ele>185.0</ele><time>2026-04-30T14:14:58Z</time></trkpt><trkpt lat="45.55314782108162" lon="10.401042918232335"><ele>186.0</ele><time>2026-04-30T14:15:00Z</time></trkpt><trkpt lat="45.553084855315106" lon="10.400924386369114"><ele>187.0</ele><time>2026-04-30T14:15:02Z</time></trkpt><trkpt lat="45.5530442495936" lon="10.400767858566912"><ele>187.0</ele><time>2026-04-30T14:15:04Z</time></trkpt><trkpt lat="45.55299997383403" lon="10.400637298063232"><ele>187.0</ele><time>2026-04-30T14:15:06Z</time></trkpt><trkpt lat="45.552945437046986" lon="10.40052370596324"><ele>187.0</ele><time>2026-04-30T14:15:08Z</time></trkpt><trkpt lat="45.5528724839774" lon="10.40043975538089"><ele>187.0</ele><time>2026-04-30T14:15:10Z</time></trkpt><trkpt lat="45.552813784598" lon="10.400331135327388"><ele>187.0</ele><time>2026-04-30T14:15:12Z</time></trkpt><trkpt lat="45.552748163024475" lon="10.400216796379404"><ele>186.0</ele><time>2026-04-30T14:15:14Z</time></trkpt><trkpt lat="45.55269958843076" lon="10.400132440516003"><ele>185.0</ele><time>2026-04-30T14:15:15Z</time></trkpt><trkpt lat="45.552621528119765" lon="10.400027080081403"><ele>184.0</ele><time>2026-04-30T14:15:17Z</time></trkpt><trkpt lat="45.552545954200724" lon="10.399920004376408"><ele>183.0</ele><time>2026-04-30T14:15:19Z</time></trkpt><trkpt lat="45.552485398847026" lon="10.399807056928237"><ele>182.0</ele><time>2026-04-30T14:15:21Z</time></trkpt><trkpt lat="45.55242781623811" lon="10.399702410156227"><ele>182.39999999999998</ele><time>2026-04-30T14:15:23Z</time></trkpt><trkpt lat="45.55235966021741" lon="10.399620467462851"><ele>182.79999999999998</ele><time>2026-04-30T14:15:25Z</time></trkpt><trkpt lat="45.55239501374569" lon="10.3993691420498"><ele>183.2</ele><time>2026-04-30T14:15:27Z</time></trkpt><trkpt lat="45.55240535833321" lon="10.399258562283235"><ele>183.6</ele><time>2026-04-30T14:15:29Z</time></trkpt><trkpt lat="45.552447428853284" lon="10.399190995808407"><ele>184.0</ele><time>2026-04-30T14:15:30Z</time></trkpt><trkpt lat="45.552529112206436" lon="10.399102743622176"><ele>184.0</ele><time>2026-04-30T14:15:32Z</time></trkpt><trkpt lat="45.5525947496974" lon="10.398999553800232"><ele>184.0</ele><time>2026-04-30T14:15:34Z</time></trkpt><trkpt lat="45.552542583423595" lon="10.398873121634205"><ele>184.0</ele><time>2026-04-30T14:15:36Z</time></trkpt><trkpt lat="45.55247508959195" lon="10.398769922842595"><ele>184.0</ele><time>2026-04-30T14:15:38Z</time></trkpt><trkpt lat="45.5524197904955" lon="10.398634611292824"><ele>184.0</ele><time>2026-04-30T14:15:40Z</time></trkpt><trkpt lat="45.55236894915065" lon="10.398530546941798"><ele>184.0</ele><time>2026-04-30T14:15:42Z</time></trkpt><trkpt lat="45.552328885350185" lon="10.3984210269746"><ele>184.0</ele><time>2026-04-30T14:15:44Z</time></trkpt><trkpt lat="45.55225945582855" lon="10.39831265672988"><ele>184.0</ele><time>2026-04-30T14:15:46Z</time></trkpt><trkpt lat="45.55220691652903" lon="10.398184964218098"><ele>184.0</ele><time>2026-04-30T14:15:48Z</time></trkpt><trkpt lat="45.552164716917005" lon="10.398063781842602"><ele>184.0</ele><time>2026-04-30T14:15:50Z</time></trkpt><trkpt lat="45.55210547367942" lon="10.397941496073225"><ele>184.0</ele><time>2026-04-30T14:15:52Z</time></trkpt><trkpt lat="45.55204310048128" lon="10.397802614678344"><ele>184.0</ele><time>2026-04-30T14:15:54Z</time></trkpt><trkpt lat="45.551978136981646" lon="10.39769317575507"><ele>184.0</ele><time>2026-04-30T14:15:56Z</time></trkpt><trkpt lat="45.55191697487268" lon="10.397599856951517"><ele>184.0</ele><time>2026-04-30T14:15:58Z</time></trkpt><trkpt lat="45.55185605084287" lon="10.397516279649981"><ele>184.0</ele><time>2026-04-30T14:16:00Z</time></trkpt><trkpt lat="45.55179527106201" lon="10.397420978652242"><ele>183.5</ele><time>2026-04-30T14:16:02Z</time></trkpt><trkpt lat="45.55172624820917" lon="10.397326311784996"><ele>183.0</ele><time>2026-04-30T14:16:04Z</time></trkpt><trkpt lat="45.55164129466177" lon="10.397221566364042"><ele>182.5</ele><time>2026-04-30T14:16:06Z</time></trkpt><trkpt lat="45.55159547156072" lon="10.397157641408905"><ele>182.0</ele><time>2026-04-30T14:16:07Z</time></trkpt><trkpt lat="45.55154403673378" lon="10.397093097367973"><ele>181.5</ele><time>2026-04-30T14:16:08Z</time></trkpt><trkpt lat="45.551496453757096" lon="10.397029602386025"><ele>181.0</ele><time>2026-04-30T14:16:09Z</time></trkpt><trkpt lat="45.551448406287186" lon="10.396968237351762"><ele>180.60000000000002</ele><time>2026-04-30T14:16:10Z</time></trkpt><trkpt lat="45.55139737566345" lon="10.396912892315155"><ele>180.2</ele><time>2026-04-30T14:16:11Z</time></trkpt><trkpt lat="45.551296344430625" lon="10.39681326370895"><ele>179.8</ele><time>2026-04-30T14:16:13Z</time></trkpt><trkpt lat="45.55120282832312" lon="10.396707613076225"><ele>179.39999999999998</ele><time>2026-04-30T14:16:15Z</time></trkpt><trkpt lat="45.55111710690121" lon="10.396619542581439"><ele>179.0</ele><time>2026-04-30T14:16:17Z</time></trkpt><trkpt lat="45.55102951283015" lon="10.396530581538057"><ele>179.0</ele><time>2026-04-30T14:16:19Z</time></trkpt><trkpt lat="45.55094793262448" lon="10.396438809813933"><ele>179.0</ele><time>2026-04-30T14:16:21Z</time></trkpt><trkpt lat="45.5508640566962" lon="10.396360162090827"><ele>179.0</ele><time>2026-04-30T14:16:23Z</time></trkpt><trkpt lat="45.55079038689925" lon="10.396238442329494"><ele>179.0</ele><time>2026-04-30T14:16:25Z</time></trkpt><trkpt lat="45.55075308568349" lon="10.396162659695882"><ele>179.0</ele><time>2026-04-30T14:16:26Z</time></trkpt><trkpt lat="45.55071530697918" lon="10.39608161062124"><ele>179.0</ele><time>2026-04-30T14:16:27Z</time></trkpt><trkpt lat="45.550678133014586" lon="10.396008979384696"><ele>179.0</ele><time>2026-04-30T14:16:28Z</time></trkpt><trkpt lat="45.5506403457031" lon="10.395928810077375"><ele>179.0</ele><time>2026-04-30T14:16:29Z</time></trkpt><trkpt lat="45.55060167115594" lon="10.395851098345892"><ele>179.0</ele><time>2026-04-30T14:16:30Z</time></trkpt><trkpt lat="45.55056377019839" lon="10.3957664049331"><ele>179.0</ele><time>2026-04-30T14:16:31Z</time></trkpt><trkpt lat="45.55048802755149" lon="10.395625118818815"><ele>179.0</ele><time>2026-04-30T14:16:33Z</time></trkpt><trkpt lat="45.55042500889197" lon="10.395481536506924"><ele>179.39999999999998</ele><time>2026-04-30T14:16:35Z</time></trkpt><trkpt lat="45.55035892859607" lon="10.395346561661853"><ele>179.8</ele><time>2026-04-30T14:16:37Z</time></trkpt><trkpt lat="45.55029804281824" lon="10.395217223882607"><ele>180.2</ele><time>2026-04-30T14:16:39Z</time></trkpt><trkpt lat="45.55026787308159" lon="10.39513448456653"><ele>180.60000000000002</ele><time>2026-04-30T14:16:40Z</time></trkpt><trkpt lat="45.55017733202237" lon="10.394977625301939"><ele>181.0</ele><time>2026-04-30T14:16:42Z</time></trkpt><trkpt lat="45.55013437974233" lon="10.394889276652478"><ele>181.0</ele><time>2026-04-30T14:16:43Z</time></trkpt><trkpt lat="45.550100397317664" lon="10.394810225736485"><ele>181.0</ele><time>2026-04-30T14:16:44Z</time></trkpt><trkpt lat="45.550045212666866" lon="10.394665167020493"><ele>181.0</ele><time>2026-04-30T14:16:46Z</time></trkpt><trkpt lat="45.54998115378773" lon="10.394527335737706"><ele>181.0</ele><time>2026-04-30T14:16:48Z</time></trkpt><trkpt lat="45.54991922764148" lon="10.39439171243476"><ele>181.0</ele><time>2026-04-30T14:16:50Z</time></trkpt><trkpt lat="45.549851866093924" lon="10.394256753903923"><ele>180.8</ele><time>2026-04-30T14:16:52Z</time></trkpt><trkpt lat="45.54978419530444" lon="10.394116777547536"><ele>180.60000000000002</ele><time>2026-04-30T14:16:54Z</time></trkpt><trkpt lat="45.54972588876919" lon="10.393984729309498"><ele>180.4</ele><time>2026-04-30T14:16:56Z</time></trkpt><trkpt lat="45.54967020390373" lon="10.393858899700366"><ele>180.2</ele><time>2026-04-30T14:16:58Z</time></trkpt><trkpt lat="45.54961190861431" lon="10.393734156236766"><ele>180.0</ele><time>2026-04-30T14:17:00Z</time></trkpt><trkpt lat="45.54955272836491" lon="10.393612237859742"><ele>180.0</ele><time>2026-04-30T14:17:02Z</time></trkpt><trkpt lat="45.549491152814014" lon="10.393485398089885"><ele>180.0</ele><time>2026-04-30T14:17:04Z</time></trkpt><trkpt lat="45.54943125833527" lon="10.393359377871345"><ele>180.0</ele><time>2026-04-30T14:17:06Z</time></trkpt><trkpt lat="45.5493704860868" lon="10.393231108002688"><ele>180.0</ele><time>2026-04-30T14:17:08Z</time></trkpt><trkpt lat="45.54931471068231" lon="10.393119464713022"><ele>180.0</ele><time>2026-04-30T14:17:10Z</time></trkpt><trkpt lat="45.54926049456152" lon="10.393019737360213"><ele>179.4</ele><time>2026-04-30T14:17:12Z</time></trkpt><trkpt lat="45.54926269244195" lon="10.392875027687962"><ele>178.8</ele><time>2026-04-30T14:17:16Z</time></trkpt><trkpt lat="45.5492456421717" lon="10.392727337282306"><ele>178.2</ele><time>2026-04-30T14:17:18Z</time></trkpt><trkpt lat="45.549177283792204" lon="10.392658391835823"><ele>177.6</ele><time>2026-04-30T14:17:20Z</time></trkpt><trkpt lat="45.54907696356945" lon="10.392627484315037"><ele>177.0</ele><time>2026-04-30T14:17:22Z</time></trkpt><trkpt lat="45.54902573692343" lon="10.392511087705978"><ele>177.0</ele><time>2026-04-30T14:17:24Z</time></trkpt><trkpt lat="45.54897223343339" lon="10.392393494364448"><ele>177.0</ele><time>2026-04-30T14:17:26Z</time></trkpt><trkpt lat="45.54891279747403" lon="10.392278313294552"><ele>177.0</ele><time>2026-04-30T14:17:28Z</time></trkpt><trkpt lat="45.54885305797707" lon="10.392148493236743"><ele>177.0</ele><time>2026-04-30T14:17:30Z</time></trkpt><trkpt lat="45.54879266812839" lon="10.392017751837495"><ele>177.0</ele><time>2026-04-30T14:17:32Z</time></trkpt><trkpt lat="45.54872657656" lon="10.39189095985544"><ele>177.0</ele><time>2026-04-30T14:17:34Z</time></trkpt><trkpt lat="45.54866471313815" lon="10.391756559162182"><ele>177.0</ele><time>2026-04-30T14:17:36Z</time></trkpt><trkpt lat="45.548597607959195" lon="10.391633669652409"><ele>177.0</ele><time>2026-04-30T14:17:38Z</time></trkpt><trkpt lat="45.54852787848657" lon="10.391495365345534"><ele>177.0</ele><time>2026-04-30T14:17:40Z</time></trkpt><trkpt lat="45.54845827007581" lon="10.391350659514545"><ele>177.16666666666666</ele><time>2026-04-30T14:17:42Z</time></trkpt><trkpt lat="45.54841636539985" lon="10.391268436991892"><ele>177.33333333333334</ele><time>2026-04-30T14:17:43Z</time></trkpt><trkpt lat="45.548375249643826" lon="10.39118617867926"><ele>177.5</ele><time>2026-04-30T14:17:44Z</time></trkpt><trkpt lat="45.5483373390458" lon="10.391112166834253"><ele>177.66666666666669</ele><time>2026-04-30T14:17:45Z</time></trkpt><trkpt lat="45.54826704237766" lon="10.390967673694815"><ele>177.83333333333334</ele><time>2026-04-30T14:17:47Z</time></trkpt><trkpt lat="45.548201008311615" lon="10.390837146723358"><ele>178.0</ele><time>2026-04-30T14:17:49Z</time></trkpt><trkpt lat="45.54813845669985" lon="10.39070643540698"><ele>178.0</ele><time>2026-04-30T14:17:51Z</time></trkpt><trkpt lat="45.5480805095943" lon="10.390585692016922"><ele>178.0</ele><time>2026-04-30T14:17:53Z</time></trkpt><trkpt lat="45.54802500687749" lon="10.390475601402311"><ele>178.0</ele><time>2026-04-30T14:17:55Z</time></trkpt><trkpt lat="45.54796579910763" lon="10.39036262632677"><ele>178.0</ele><time>2026-04-30T14:17:57Z</time></trkpt><trkpt lat="45.54790963238767" lon="10.39024814394104"><ele>178.0</ele><time>2026-04-30T14:17:59Z</time></trkpt><trkpt lat="45.54784433841257" lon="10.390127173035168"><ele>178.2</ele><time>2026-04-30T14:18:01Z</time></trkpt><trkpt lat="45.54777719058664" lon="10.389997534328788"><ele>178.4</ele><time>2026-04-30T14:18:03Z</time></trkpt><trkpt lat="45.54771302916511" lon="10.389861531014544"><ele>178.6</ele><time>2026-04-30T14:18:05Z</time></trkpt><trkpt lat="45.54764206973641" lon="10.389722964964553"><ele>178.79999999999998</ele><time>2026-04-30T14:18:07Z</time></trkpt><trkpt lat="45.547603881451636" lon="10.389649010407712"><ele>179.0</ele><time>2026-04-30T14:18:08Z</time></trkpt><trkpt lat="45.54753384387354" lon="10.38949012944238"><ele>179.2</ele><time>2026-04-30T14:18:10Z</time></trkpt><trkpt lat="45.54749426514596" lon="10.389418623453269"><ele>179.39999999999998</ele><time>2026-04-30T14:18:11Z</time></trkpt><trkpt lat="45.54745474547482" lon="10.389334153048923"><ele>179.6</ele><time>2026-04-30T14:18:12Z</time></trkpt><trkpt lat="45.547379375709355" lon="10.389189771831727"><ele>179.8</ele><time>2026-04-30T14:18:14Z</time></trkpt><trkpt lat="45.54731425940518" lon="10.38905906103965"><ele>180.0</ele><time>2026-04-30T14:18:16Z</time></trkpt><trkpt lat="45.54725149032767" lon="10.388925474892867"><ele>180.0</ele><time>2026-04-30T14:18:18Z</time></trkpt><trkpt lat="45.5471875605205" lon="10.388808501602036"><ele>180.0</ele><time>2026-04-30T14:18:20Z</time></trkpt><trkpt lat="45.54713437644877" lon="10.388697572283073"><ele>180.0</ele><time>2026-04-30T14:18:22Z</time></trkpt><trkpt lat="45.54707685852825" lon="10.388588249407254"><ele>180.0</ele><time>2026-04-30T14:18:24Z</time></trkpt><trkpt lat="45.54705200442647" lon="10.388438200773615"><ele>180.0</ele><time>2026-04-30T14:18:26Z</time></trkpt><trkpt lat="45.547013313081116" lon="10.388323886141713"><ele>179.6</ele><time>2026-04-30T14:18:28Z</time></trkpt><trkpt lat="45.54690089439696" lon="10.38831805587684"><ele>179.2</ele><time>2026-04-30T14:18:30Z</time></trkpt><trkpt lat="45.546847912897654" lon="10.388458501991904"><ele>178.8</ele><time>2026-04-30T14:18:32Z</time></trkpt><trkpt lat="45.54680808158787" lon="10.388599917922965"><ele>178.4</ele><time>2026-04-30T14:18:34Z</time></trkpt><trkpt lat="45.54670894927149" lon="10.388686700881136"><ele>178.0</ele><time>2026-04-30T14:18:36Z</time></trkpt><trkpt lat="45.54665629488099" lon="10.38873952637233"><ele>178.0</ele><time>2026-04-30T14:18:37Z</time></trkpt><trkpt lat="45.54659571370949" lon="10.388792880347802"><ele>178.0</ele><time>2026-04-30T14:18:38Z</time></trkpt><trkpt lat="45.546532690092775" lon="10.388855049735271"><ele>178.0</ele><time>2026-04-30T14:18:39Z</time></trkpt><trkpt lat="45.546467593301" lon="10.388921747078218"><ele>178.0</ele><time>2026-04-30T14:18:40Z</time></trkpt><trkpt lat="45.54640394835454" lon="10.389001552996406"><ele>178.0</ele><time>2026-04-30T14:18:41Z</time></trkpt><trkpt lat="45.54634439074392" lon="10.389081060329294"><ele>178.0</ele><time>2026-04-30T14:18:42Z</time></trkpt><trkpt lat="45.54628545336559" lon="10.389160320177531"><ele>177.83333333333334</ele><time>2026-04-30T14:18:43Z</time></trkpt><trkpt lat="45.54623513144591" lon="10.389239238425462"><ele>177.66666666666669</ele><time>2026-04-30T14:18:44Z</time></trkpt><trkpt lat="45.546187450373864" lon="10.389305884959104"><ele>177.5</ele><time>2026-04-30T14:18:45Z</time></trkpt><trkpt lat="45.54613839191742" lon="10.389368061680209"><ele>177.33333333333334</ele><time>2026-04-30T14:18:46Z</time></trkpt><trkpt lat="45.54608859054177" lon="10.389430414274564"><ele>177.16666666666666</ele><time>2026-04-30T14:18:47Z</time></trkpt><trkpt lat="45.54604429447382" lon="10.389498005069829"><ele>177.0</ele><time>2026-04-30T14:18:48Z</time></trkpt><trkpt lat="45.54596190399657" lon="10.389624968595706"><ele>177.0</ele><time>2026-04-30T14:18:50Z</time></trkpt><trkpt lat="45.54587052042574" lon="10.389715428271051"><ele>177.0</ele><time>2026-04-30T14:18:52Z</time></trkpt><trkpt lat="45.54579484104999" lon="10.389821933192149"><ele>177.0</ele><time>2026-04-30T14:18:54Z</time></trkpt><trkpt lat="45.545728065397604" lon="10.389899512801874"><ele>177.0</ele><time>2026-04-30T14:18:56Z</time></trkpt><trkpt lat="45.54565043852885" lon="10.389832272695289"><ele>177.0</ele><time>2026-04-30T14:18:59Z</time></trkpt><trkpt lat="45.54559107852359" lon="10.38971230584009"><ele>176.83333333333334</ele><time>2026-04-30T14:19:01Z</time></trkpt><trkpt lat="45.545532967157655" lon="10.389595346810681"><ele>176.66666666666666</ele><time>2026-04-30T14:19:03Z</time></trkpt><trkpt lat="45.54547203448397" lon="10.389498440615347"><ele>176.5</ele><time>2026-04-30T14:19:05Z</time></trkpt><trkpt lat="45.54541529027871" lon="10.389406838641827"><ele>176.33333333333331</ele><time>2026-04-30T14:19:07Z</time></trkpt><trkpt lat="45.5453642790771" lon="10.389318673949111"><ele>176.16666666666666</ele><time>2026-04-30T14:19:09Z</time></trkpt><trkpt lat="45.545313298058815" lon="10.38923638167148"><ele>176.0</ele><time>2026-04-30T14:19:11Z</time></trkpt><trkpt lat="45.5452402603617" lon="10.389168338047895"><ele>174.0</ele><time>2026-04-30T14:19:13Z</time></trkpt><trkpt lat="45.54516068089679" lon="10.389159969543057"><ele>174.0</ele><time>2026-04-30T14:19:15Z</time></trkpt><trkpt lat="45.54511473162958" lon="10.389233390684058"><ele>174.0</ele><time>2026-04-30T14:19:18Z</time></trkpt><trkpt lat="45.54507094703995" lon="10.389305537080235"><ele>174.0</ele><time>2026-04-30T14:19:45Z</time></trkpt><trkpt lat="45.545019929957554" lon="10.389369945435726"><ele>174.0</ele><time>2026-04-30T14:19:49Z</time></trkpt><trkpt lat="45.544948580503245" lon="10.389441247724022"><ele>174.0</ele><time>2026-04-30T14:19:51Z</time></trkpt></trkseg><trkseg><trkpt lat="45.545088344685624" lon="10.38935271537862"><ele>174.0</ele><time>2026-04-30T14:34:04Z</time></trkpt><trkpt lat="45.54512790159205" lon="10.389268601209755"><ele>174.0</ele><time>2026-04-30T14:34:08Z</time></trkpt><trkpt lat="45.5451459253079" lon="10.389172781836814"><ele>174.0</ele><time>2026-04-30T14:34:12Z</time></trkpt><trkpt lat="45.54521947089858" lon="10.389159070419257"><ele>174.0</ele><time>2026-04-30T14:34:15Z</time></trkpt><trkpt lat="45.54526993046523" lon="10.389237276913223"><ele>174.0</ele><time>2026-04-30T14:34:17Z</time></trkpt><trkpt lat="45.545312134878834" lon="10.38931374614573"><ele>174.0</ele><time>2026-04-30T14:34:19Z</time></trkpt><trkpt lat="45.545356362474976" lon="10.389393096964618"><ele>174.0</ele><time>2026-04-30T14:34:21Z</time></trkpt><trkpt lat="45.545403080683876" lon="10.38946723750313"><ele>174.33333333333334</ele><time>2026-04-30T14:34:23Z</time></trkpt><trkpt lat="45.545448680323965" lon="10.38955835377681"><ele>174.66666666666666</ele><time>2026-04-30T14:34:25Z</time></trkpt><trkpt lat="45.54549721355874" lon="10.389645110901563"><ele>175.0</ele><time>2026-04-30T14:34:27Z</time></trkpt><trkpt lat="45.54555637944157" lon="10.389727644631273"><ele>175.33333333333331</ele><time>2026-04-30T14:34:29Z</time></trkpt><trkpt lat="45.54560569296503" lon="10.389820439476102"><ele>175.66666666666666</ele><time>2026-04-30T14:34:31Z</time></trkpt><trkpt lat="45.54566117456146" lon="10.389895131358497"><ele>176.0</ele><time>2026-04-30T14:34:33Z</time></trkpt><trkpt lat="45.5457245416193" lon="10.38995296351191"><ele>176.0</ele><time>2026-04-30T14:34:35Z</time></trkpt><trkpt lat="45.54579500355358" lon="10.389900581293329"><ele>176.0</ele><time>2026-04-30T14:34:37Z</time></trkpt><trkpt lat="45.54584672817797" lon="10.38982409862941"><ele>176.0</ele><time>2026-04-30T14:34:39Z</time></trkpt><trkpt lat="45.54591233292444" lon="10.38973673834784"><ele>176.0</ele><time>2026-04-30T14:34:41Z</time></trkpt><trkpt lat="45.54598922724623" lon="10.38963487690199"><ele>176.0</ele><time>2026-04-30T14:34:43Z</time></trkpt><trkpt lat="45.54606685995231" lon="10.389541499442783"><ele>176.0</ele><time>2026-04-30T14:34:45Z</time></trkpt><trkpt lat="45.546132878880854" lon="10.389450126041355"><ele>176.0</ele><time>2026-04-30T14:34:47Z</time></trkpt><trkpt lat="45.54619633099101" lon="10.389371076332068"><ele>176.0</ele><time>2026-04-30T14:34:49Z</time></trkpt><trkpt lat="45.54625588617581" lon="10.389289900241886"><ele>176.0</ele><time>2026-04-30T14:34:51Z</time></trkpt><trkpt lat="45.54632071825433" lon="10.389203954627778"><ele>176.0</ele><time>2026-04-30T14:34:53Z</time></trkpt><trkpt lat="45.54637565737175" lon="10.38912661060483"><ele>176.0</ele><time>2026-04-30T14:34:55Z</time></trkpt><trkpt lat="45.54643150790473" lon="10.38905801643926"><ele>176.20000000000002</ele><time>2026-04-30T14:34:57Z</time></trkpt><trkpt lat="45.54650018286712" lon="10.389077464115983"><ele>176.4</ele><time>2026-04-30T14:34:59Z</time></trkpt><trkpt lat="45.546561305524015" lon="10.389215574756122"><ele>176.6</ele><time>2026-04-30T14:35:01Z</time></trkpt><trkpt lat="45.54660066698761" lon="10.389375255470785"><ele>176.8</ele><time>2026-04-30T14:35:03Z</time></trkpt><trkpt lat="45.54664306265083" lon="10.3895219677158"><ele>177.0</ele><time>2026-04-30T14:35:05Z</time></trkpt><trkpt lat="45.54670919500064" lon="10.389645129492019"><ele>177.0</ele><time>2026-04-30T14:35:07Z</time></trkpt><trkpt lat="45.54674391140836" lon="10.389782693993045"><ele>177.0</ele><time>2026-04-30T14:35:09Z</time></trkpt><trkpt lat="45.54680687732048" lon="10.389907057660926"><ele>177.0</ele><time>2026-04-30T14:35:11Z</time></trkpt><trkpt lat="45.546852849548706" lon="10.390028858920854"><ele>177.0</ele><time>2026-04-30T14:35:13Z</time></trkpt><trkpt lat="45.5468959143753" lon="10.390163483176247"><ele>177.0</ele><time>2026-04-30T14:35:15Z</time></trkpt><trkpt lat="45.546945820285714" lon="10.390294931090544"><ele>177.0</ele><time>2026-04-30T14:35:17Z</time></trkpt><trkpt lat="45.54700052379625" lon="10.39041606068031"><ele>177.0</ele><time>2026-04-30T14:35:19Z</time></trkpt><trkpt lat="45.54704954061038" lon="10.390545202149905"><ele>177.0</ele><time>2026-04-30T14:35:21Z</time></trkpt><trkpt lat="45.54709758298416" lon="10.39066187706086"><ele>177.0</ele><time>2026-04-30T14:35:23Z</time></trkpt><trkpt lat="45.54713429917628" lon="10.390772798859475"><ele>177.0</ele><time>2026-04-30T14:35:25Z</time></trkpt><trkpt lat="45.54719738351567" lon="10.390861841985483"><ele>177.39999999999998</ele><time>2026-04-30T14:35:27Z</time></trkpt><trkpt lat="45.54729638828072" lon="10.39085700996024"><ele>177.79999999999998</ele><time>2026-04-30T14:35:29Z</time></trkpt><trkpt lat="45.54737439717262" lon="10.39076941136357"><ele>178.2</ele><time>2026-04-30T14:35:31Z</time></trkpt><trkpt lat="45.54744964657026" lon="10.390690968726519"><ele>178.6</ele><time>2026-04-30T14:35:33Z</time></trkpt><trkpt lat="45.5475326024999" lon="10.39061743298085"><ele>179.0</ele><time>2026-04-30T14:35:35Z</time></trkpt><trkpt lat="45.54760962964932" lon="10.390540765847582"><ele>179.00000000000003</ele><time>2026-04-30T14:35:37Z</time></trkpt><trkpt lat="45.54768260041966" lon="10.39046768691662"><ele>179.0</ele><time>2026-04-30T14:35:39Z</time></trkpt><trkpt lat="45.54774841584978" lon="10.390404101807938"><ele>179.0</ele><time>2026-04-30T14:35:41Z</time></trkpt><trkpt lat="45.54780350951261" lon="10.39034953141279"><ele>179.0</ele><time>2026-04-30T14:35:43Z</time></trkpt><trkpt lat="45.547867805973866" lon="10.390361214413614"><ele>179.0</ele><time>2026-04-30T14:35:46Z</time></trkpt><trkpt lat="45.54789943856108" lon="10.39045263191164"><ele>179.00000000000003</ele><time>2026-04-30T14:35:48Z</time></trkpt><trkpt lat="45.54794325826608" lon="10.390528531501737"><ele>179.0</ele><time>2026-04-30T14:35:50Z</time></trkpt><trkpt lat="45.547990192611735" lon="10.39062409913615"><ele>178.83333333333331</ele><time>2026-04-30T14:35:53Z</time></trkpt><trkpt lat="45.54803324573935" lon="10.39071207490899"><ele>178.66666666666666</ele><time>2026-04-30T14:35:56Z</time></trkpt><trkpt lat="45.54807316295858" lon="10.390793287194949"><ele>178.5</ele><time>2026-04-30T14:35:58Z</time></trkpt><trkpt lat="45.54811891906685" lon="10.390898947829603"><ele>178.33333333333334</ele><time>2026-04-30T14:36:00Z</time></trkpt><trkpt lat="45.54816423661742" lon="10.391015420067486"><ele>178.16666666666669</ele><time>2026-04-30T14:36:02Z</time></trkpt><trkpt lat="45.54820711161167" lon="10.39110796079309"><ele>178.0</ele><time>2026-04-30T14:36:04Z</time></trkpt><trkpt lat="45.54825084416161" lon="10.39119230498225"><ele>178.0</ele><time>2026-04-30T14:36:06Z</time></trkpt><trkpt lat="45.54828800712907" lon="10.391268374531176"><ele>178.0</ele><time>2026-04-30T14:36:08Z</time></trkpt><trkpt lat="45.54832715287039" lon="10.391355972797257"><ele>178.0</ele><time>2026-04-30T14:36:10Z</time></trkpt><trkpt lat="45.54837847700727" lon="10.39145822183024"><ele>178.0</ele><time>2026-04-30T14:36:12Z</time></trkpt><trkpt lat="45.548429103625686" lon="10.39155563674105"><ele>178.0</ele><time>2026-04-30T14:36:14Z</time></trkpt><trkpt lat="45.54848233090714" lon="10.391657400318575"><ele>178.0</ele><time>2026-04-30T14:36:16Z</time></trkpt><trkpt lat="45.54853623142463" lon="10.391761558303378"><ele>177.83333333333334</ele><time>2026-04-30T14:36:18Z</time></trkpt><trkpt lat="45.548595557813044" lon="10.39186097420256"><ele>177.66666666666669</ele><time>2026-04-30T14:36:20Z</time></trkpt><trkpt lat="45.548649527311674" lon="10.391971094833684"><ele>177.5</ele><time>2026-04-30T14:36:22Z</time></trkpt><trkpt lat="45.54870091986375" lon="10.392076191107446"><ele>177.33333333333334</ele><time>2026-04-30T14:36:24Z</time></trkpt><trkpt lat="45.54874658849272" lon="10.392176539025845"><ele>177.16666666666666</ele><time>2026-04-30T14:36:26Z</time></trkpt><trkpt lat="45.54879314093194" lon="10.392273573501958"><ele>177.0</ele><time>2026-04-30T14:36:28Z</time></trkpt><trkpt lat="45.54886708272008" lon="10.392348233128153"><ele>177.0</ele><time>2026-04-30T14:36:30Z</time></trkpt><trkpt lat="45.548922496263096" lon="10.392401125912649"><ele>177.0</ele><time>2026-04-30T14:36:31Z</time></trkpt><trkpt lat="45.54899586336266" lon="10.392546759088699"><ele>177.0</ele><time>2026-04-30T14:36:33Z</time></trkpt><trkpt lat="45.54904068661051" lon="10.392654858450326"><ele>177.0</ele><time>2026-04-30T14:36:35Z</time></trkpt><trkpt lat="45.54904696325978" lon="10.392824518024849"><ele>177.0</ele><time>2026-04-30T14:36:38Z</time></trkpt><trkpt lat="45.54910218642491" lon="10.392928169355576"><ele>177.0</ele><time>2026-04-30T14:36:40Z</time></trkpt><trkpt lat="45.54919336367381" lon="10.392981513619226"><ele>177.0</ele><time>2026-04-30T14:36:42Z</time></trkpt><trkpt lat="45.54924770940384" lon="10.393058393018853"><ele>177.0</ele><time>2026-04-30T14:36:44Z</time></trkpt><trkpt lat="45.54931161460738" lon="10.393194365503705"><ele>177.0</ele><time>2026-04-30T14:36:46Z</time></trkpt><trkpt lat="45.54937661686733" lon="10.393317319199328"><ele>177.0</ele><time>2026-04-30T14:36:48Z</time></trkpt><trkpt lat="45.549438336733246" lon="10.393453201057781"><ele>177.2</ele><time>2026-04-30T14:36:50Z</time></trkpt><trkpt lat="45.54949774346667" lon="10.393581873909227"><ele>177.39999999999998</ele><time>2026-04-30T14:36:52Z</time></trkpt><trkpt lat="45.54955835161177" lon="10.393711534020955"><ele>177.60000000000002</ele><time>2026-04-30T14:36:54Z</time></trkpt><trkpt lat="45.549623658809885" lon="10.393845810172193"><ele>177.8</ele><time>2026-04-30T14:36:56Z</time></trkpt><trkpt lat="45.5496801895059" lon="10.393969771874"><ele>178.0</ele><time>2026-04-30T14:36:58Z</time></trkpt><trkpt lat="45.54974017561047" lon="10.394101210355986"><ele>178.5</ele><time>2026-04-30T14:37:00Z</time></trkpt><trkpt lat="45.549801685859435" lon="10.394237619130386"><ele>179.0</ele><time>2026-04-30T14:37:02Z</time></trkpt><trkpt lat="45.54987107877469" lon="10.394371161766864"><ele>179.5</ele><time>2026-04-30T14:37:04Z</time></trkpt><trkpt lat="45.54993529977329" lon="10.394517155881264"><ele>180.0</ele><time>2026-04-30T14:37:06Z</time></trkpt><trkpt lat="45.550003194460274" lon="10.394665437069847"><ele>180.2</ele><time>2026-04-30T14:37:08Z</time></trkpt><trkpt lat="45.55006309603471" lon="10.394795522801976"><ele>180.4</ele><time>2026-04-30T14:37:10Z</time></trkpt><trkpt lat="45.55012211288695" lon="10.39492203901749"><ele>180.60000000000002</ele><time>2026-04-30T14:37:12Z</time></trkpt><trkpt lat="45.55016181881153" lon="10.394993740922551"><ele>180.8</ele><time>2026-04-30T14:37:13Z</time></trkpt><trkpt lat="45.55022609210371" lon="10.395133136204773"><ele>181.0</ele><time>2026-04-30T14:37:15Z</time></trkpt><trkpt lat="45.55025419960739" lon="10.395215064023867"><ele>181.0</ele><time>2026-04-30T14:37:16Z</time></trkpt><trkpt lat="45.55029104286088" lon="10.395290800755875"><ele>181.0</ele><time>2026-04-30T14:37:17Z</time></trkpt><trkpt lat="45.55033317740332" lon="10.395365687185574"><ele>181.0</ele><time>2026-04-30T14:37:18Z</time></trkpt><trkpt lat="45.55037919570249" lon="10.395450602340405"><ele>181.0</ele><time>2026-04-30T14:37:19Z</time></trkpt><trkpt lat="45.55042190660531" lon="10.395543057569915"><ele>181.0</ele><time>2026-04-30T14:37:20Z</time></trkpt><trkpt lat="45.55046356289579" lon="10.395639198188254"><ele>181.0</ele><time>2026-04-30T14:37:21Z</time></trkpt><trkpt lat="45.55050171131453" lon="10.395726912842202"><ele>181.0</ele><time>2026-04-30T14:37:22Z</time></trkpt><trkpt lat="45.55054055174576" lon="10.395814125282483"><ele>180.71428571428572</ele><time>2026-04-30T14:37:23Z</time></trkpt><trkpt lat="45.55057882493692" lon="10.395885579022208"><ele>180.42857142857142</ele><time>2026-04-30T14:37:24Z</time></trkpt><trkpt lat="45.55061582486329" lon="10.395964985117537"><ele>180.14285714285717</ele><time>2026-04-30T14:37:25Z</time></trkpt><trkpt lat="45.550651951681196" lon="10.39603950266602"><ele>179.85714285714286</ele><time>2026-04-30T14:37:26Z</time></trkpt><trkpt lat="45.550684494496" lon="10.396117377906055"><ele>179.57142857142858</ele><time>2026-04-30T14:37:27Z</time></trkpt><trkpt lat="45.550727234048374" lon="10.396188858981398"><ele>179.2857142857143</ele><time>2026-04-30T14:37:28Z</time></trkpt><trkpt lat="45.550802061934824" lon="10.396318389492775"><ele>179.0</ele><time>2026-04-30T14:37:30Z</time></trkpt><trkpt lat="45.55086906437378" lon="10.396440373118661"><ele>179.0</ele><time>2026-04-30T14:37:32Z</time></trkpt><trkpt lat="45.55095138707942" lon="10.396526348040918"><ele>179.0</ele><time>2026-04-30T14:37:34Z</time></trkpt><trkpt lat="45.55103406192418" lon="10.39660752315949"><ele>179.0</ele><time>2026-04-30T14:37:36Z</time></trkpt><trkpt lat="45.551106418412395" lon="10.396690198866786"><ele>179.0</ele><time>2026-04-30T14:37:38Z</time></trkpt><trkpt lat="45.551174393564445" lon="10.3967886900431"><ele>179.0</ele><time>2026-04-30T14:37:40Z</time></trkpt><trkpt lat="45.55125531271588" lon="10.396859293428296"><ele>179.0</ele><time>2026-04-30T14:37:42Z</time></trkpt><trkpt lat="45.55133572334068" lon="10.396920471203941"><ele>179.0</ele><time>2026-04-30T14:37:44Z</time></trkpt><trkpt lat="45.551408563736224" lon="10.397003790713155"><ele>179.0</ele><time>2026-04-30T14:37:46Z</time></trkpt><trkpt lat="45.551480545661356" lon="10.397082072639254"><ele>179.0</ele><time>2026-04-30T14:37:48Z</time></trkpt><trkpt lat="45.55155067423403" lon="10.397175625633666"><ele>179.0</ele><time>2026-04-30T14:37:50Z</time></trkpt><trkpt lat="45.551616945583675" lon="10.397262018718662"><ele>179.39999999999998</ele><time>2026-04-30T14:37:52Z</time></trkpt><trkpt lat="45.55168574172223" lon="10.397353646232185"><ele>179.8</ele><time>2026-04-30T14:37:54Z</time></trkpt><trkpt lat="45.55175470616995" lon="10.397446303842443"><ele>180.2</ele><time>2026-04-30T14:37:56Z</time></trkpt><trkpt lat="45.55182562478522" lon="10.397543777119697"><ele>180.60000000000002</ele><time>2026-04-30T14:37:58Z</time></trkpt><trkpt lat="45.55189033284942" lon="10.397661299104437"><ele>181.0</ele><time>2026-04-30T14:38:00Z</time></trkpt><trkpt lat="45.55195197614461" lon="10.397766479161238"><ele>181.0</ele><time>2026-04-30T14:38:02Z</time></trkpt><trkpt lat="45.552014852600784" lon="10.39788053102895"><ele>181.0</ele><time>2026-04-30T14:38:04Z</time></trkpt><trkpt lat="45.55207307613537" lon="10.398002732673621"><ele>181.0</ele><time>2026-04-30T14:38:06Z</time></trkpt><trkpt lat="45.552140251801035" lon="10.39811712431212"><ele>181.0</ele><time>2026-04-30T14:38:08Z</time></trkpt><trkpt lat="45.552190625938835" lon="10.398236633417062"><ele>181.0</ele><time>2026-04-30T14:38:10Z</time></trkpt><trkpt lat="45.55223599718289" lon="10.398345568147999"><ele>181.33333333333334</ele><time>2026-04-30T14:38:12Z</time></trkpt><trkpt lat="45.552284868556406" lon="10.398453480138937"><ele>181.66666666666669</ele><time>2026-04-30T14:38:14Z</time></trkpt><trkpt lat="45.552326158726906" lon="10.398555734967577"><ele>182.0</ele><time>2026-04-30T14:38:16Z</time></trkpt><trkpt lat="45.552367167926505" lon="10.398652265025419"><ele>182.33333333333334</ele><time>2026-04-30T14:38:18Z</time></trkpt><trkpt lat="45.552404120933694" lon="10.398745334472448"><ele>182.66666666666666</ele><time>2026-04-30T14:38:20Z</time></trkpt><trkpt lat="45.552447135023115" lon="10.39883904187045"><ele>183.0</ele><time>2026-04-30T14:38:22Z</time></trkpt><trkpt lat="45.552483955413216" lon="10.398925270154283"><ele>183.16666666666666</ele><time>2026-04-30T14:38:24Z</time></trkpt><trkpt lat="45.552526951829805" lon="10.399007433354365"><ele>183.33333333333334</ele><time>2026-04-30T14:38:27Z</time></trkpt><trkpt lat="45.55258667164566" lon="10.39907313895009"><ele>183.5</ele><time>2026-04-30T14:38:30Z</time></trkpt><trkpt lat="45.55266927639379" lon="10.3989973576599"><ele>183.66666666666669</ele><time>2026-04-30T14:38:31Z</time></trkpt><trkpt lat="45.55273799935832" lon="10.398960540706398"><ele>183.83333333333334</ele><time>2026-04-30T14:38:33Z</time></trkpt><trkpt lat="45.55280727574169" lon="10.398924485725303"><ele>184.0</ele><time>2026-04-30T14:38:35Z</time></trkpt><trkpt lat="45.55287084347517" lon="10.398884837274382"><ele>184.0</ele><time>2026-04-30T14:38:37Z</time></trkpt><trkpt lat="45.552939875882394" lon="10.398843643191046"><ele>184.0</ele><time>2026-04-30T14:38:39Z</time></trkpt><trkpt lat="45.553019227659604" lon="10.398798322903772"><ele>184.0</ele><time>2026-04-30T14:38:41Z</time></trkpt><trkpt lat="45.55309910841977" lon="10.398757838686358"><ele>184.0</ele><time>2026-04-30T14:38:43Z</time></trkpt><trkpt lat="45.55317870889461" lon="10.398750271216558"><ele>184.0</ele><time>2026-04-30T14:38:45Z</time></trkpt><trkpt lat="45.55325301254129" lon="10.398782444342778"><ele>184.0</ele><time>2026-04-30T14:38:47Z</time></trkpt><trkpt lat="45.553322676918604" lon="10.39881969568973"><ele>184.0</ele><time>2026-04-30T14:38:49Z</time></trkpt><trkpt lat="45.55338842817531" lon="10.398867086283852"><ele>184.0</ele><time>2026-04-30T14:38:51Z</time></trkpt><trkpt lat="45.553458285038325" lon="10.398917242721087"><ele>184.0</ele><time>2026-04-30T14:38:53Z</time></trkpt><trkpt lat="45.553523245486595" lon="10.398965282469801"><ele>184.0</ele><time>2026-04-30T14:38:55Z</time></trkpt><trkpt lat="45.55358744678986" lon="10.399012785959696"><ele>184.0</ele><time>2026-04-30T14:38:57Z</time></trkpt><trkpt lat="45.55365996699497" lon="10.399050760388606"><ele>184.0</ele><time>2026-04-30T14:38:59Z</time></trkpt><trkpt lat="45.55373239382401" lon="10.399091256710324"><ele>184.0</ele><time>2026-04-30T14:39:01Z</time></trkpt><trkpt lat="45.55380439107238" lon="10.399126662544882"><ele>184.0</ele><time>2026-04-30T14:39:03Z</time></trkpt><trkpt lat="45.55387693723894" lon="10.399169660944207"><ele>184.0</ele><time>2026-04-30T14:39:05Z</time></trkpt><trkpt lat="45.553943738579804" lon="10.399210212760204"><ele>184.0</ele><time>2026-04-30T14:39:07Z</time></trkpt><trkpt lat="45.55402372700734" lon="10.399264920067015"><ele>184.0</ele><time>2026-04-30T14:39:10Z</time></trkpt><trkpt lat="45.554078842937855" lon="10.399330646324124"><ele>184.0</ele><time>2026-04-30T14:39:14Z</time></trkpt><trkpt lat="45.554233765394926" lon="10.398982623676758"><ele>184.0</ele><time>2026-04-30T14:39:35Z</time></trkpt><trkpt lat="45.55429087753717" lon="10.398889709160919"><ele>184.0</ele><time>2026-04-30T14:39:37Z</time></trkpt><trkpt lat="45.55436105468947" lon="10.398817737304267"><ele>184.0</ele><time>2026-04-30T14:39:39Z</time></trkpt><trkpt lat="45.554430414673064" lon="10.398734868415321"><ele>184.0</ele><time>2026-04-30T14:39:41Z</time></trkpt><trkpt lat="45.55449386663441" lon="10.398650634971967"><ele>184.0</ele><time>2026-04-30T14:39:43Z</time></trkpt><trkpt lat="45.55455676132669" lon="10.39858318627201"><ele>184.0</ele><time>2026-04-30T14:39:45Z</time></trkpt><trkpt lat="45.55461390428703" lon="10.39850346727377"><ele>184.5</ele><time>2026-04-30T14:39:47Z</time></trkpt><trkpt lat="45.55467622004844" lon="10.398424484165682"><ele>185.0</ele><time>2026-04-30T14:39:49Z</time></trkpt><trkpt lat="45.554744197258906" lon="10.398347759905814"><ele>185.5</ele><time>2026-04-30T14:39:51Z</time></trkpt><trkpt lat="45.554803916132606" lon="10.39825686677189"><ele>186.0</ele><time>2026-04-30T14:39:53Z</time></trkpt><trkpt lat="45.55487129203005" lon="10.398177596654882"><ele>186.5</ele><time>2026-04-30T14:39:55Z</time></trkpt><trkpt lat="45.554945430295845" lon="10.398101333834457"><ele>187.0</ele><time>2026-04-30T14:39:57Z</time></trkpt><trkpt lat="45.55502036971763" lon="10.39801007729704"><ele>186.8</ele><time>2026-04-30T14:39:59Z</time></trkpt><trkpt lat="45.55509230082822" lon="10.397925338252906"><ele>186.6</ele><time>2026-04-30T14:40:01Z</time></trkpt><trkpt lat="45.55516135054793" lon="10.397844585334873"><ele>186.4</ele><time>2026-04-30T14:40:03Z</time></trkpt><trkpt lat="45.55523748183321" lon="10.39775723600899"><ele>186.20000000000002</ele><time>2026-04-30T14:40:05Z</time></trkpt><trkpt lat="45.555305297423935" lon="10.397669629471533"><ele>186.0</ele><time>2026-04-30T14:40:07Z</time></trkpt><trkpt lat="45.55537365108701" lon="10.397600742064585"><ele>186.33333333333334</ele><time>2026-04-30T14:40:09Z</time></trkpt><trkpt lat="45.555452135961524" lon="10.397570425554314"><ele>186.66666666666666</ele><time>2026-04-30T14:40:11Z</time></trkpt><trkpt lat="45.55554241364467" lon="10.39755434834213"><ele>187.0</ele><time>2026-04-30T14:40:13Z</time></trkpt><trkpt lat="45.55563142230443" lon="10.397525673361548"><ele>187.33333333333331</ele><time>2026-04-30T14:40:15Z</time></trkpt><trkpt lat="45.55571136201319" lon="10.397493937865741"><ele>187.66666666666666</ele><time>2026-04-30T14:40:17Z</time></trkpt><trkpt lat="45.55577570173367" lon="10.397441105677169"><ele>188.0</ele><time>2026-04-30T14:40:19Z</time></trkpt><trkpt lat="45.55582702289491" lon="10.39737854961972"><ele>188.0</ele><time>2026-04-30T14:40:21Z</time></trkpt><trkpt lat="45.55589050157125" lon="10.39733721360766"><ele>188.0</ele><time>2026-04-30T14:40:23Z</time></trkpt><trkpt lat="45.55595717689785" lon="10.397289274581704"><ele>188.0</ele><time>2026-04-30T14:40:25Z</time></trkpt><trkpt lat="45.55602146678542" lon="10.397227443401496"><ele>188.0</ele><time>2026-04-30T14:40:27Z</time></trkpt><trkpt lat="45.55609317755681" lon="10.397170426175764"><ele>188.0</ele><time>2026-04-30T14:40:29Z</time></trkpt><trkpt lat="45.55616423202607" lon="10.397111139801044"><ele>188.0</ele><time>2026-04-30T14:40:31Z</time></trkpt><trkpt lat="45.55623905007548" lon="10.397050412660882"><ele>189.0</ele><time>2026-04-30T14:40:33Z</time></trkpt><trkpt lat="45.556316832843684" lon="10.396994335561317"><ele>190.0</ele><time>2026-04-30T14:40:35Z</time></trkpt><trkpt lat="45.55639402290899" lon="10.39695356279658"><ele>191.0</ele><time>2026-04-30T14:40:37Z</time></trkpt><trkpt lat="45.55646951286169" lon="10.396903588902685"><ele>192.0</ele><time>2026-04-30T14:40:39Z</time></trkpt><trkpt lat="45.556548993749196" lon="10.396869657077215"><ele>193.00000000000003</ele><time>2026-04-30T14:40:41Z</time></trkpt><trkpt lat="45.5566313574586" lon="10.396850959465075"><ele>194.0</ele><time>2026-04-30T14:40:43Z</time></trkpt><trkpt lat="45.55671321601036" lon="10.396848567027261"><ele>194.00000000000003</ele><time>2026-04-30T14:40:45Z</time></trkpt><trkpt lat="45.55679765765523" lon="10.39684966182377"><ele>194.0</ele><time>2026-04-30T14:40:47Z</time></trkpt><trkpt lat="45.556878432226135" lon="10.396854447520791"><ele>194.0</ele><time>2026-04-30T14:40:49Z</time></trkpt><trkpt lat="45.556957267446116" lon="10.396853296283718"><ele>194.0</ele><time>2026-04-30T14:40:51Z</time></trkpt><trkpt lat="45.5570462757861" lon="10.396844005526688"><ele>194.00000000000003</ele><time>2026-04-30T14:40:54Z</time></trkpt><trkpt lat="45.55712104336513" lon="10.396886417856011"><ele>194.0</ele><time>2026-04-30T14:40:57Z</time></trkpt><trkpt lat="45.557173055545924" lon="10.39698639392549"><ele>194.33333333333334</ele><time>2026-04-30T14:41:00Z</time></trkpt><trkpt lat="45.557243390971976" lon="10.397089097988427"><ele>194.66666666666669</ele><time>2026-04-30T14:41:03Z</time></trkpt><trkpt lat="45.55730040367653" lon="10.397166904481692"><ele>195.0</ele><time>2026-04-30T14:41:05Z</time></trkpt><trkpt lat="45.5573716906866" lon="10.397262740440057"><ele>195.33333333333331</ele><time>2026-04-30T14:41:08Z</time></trkpt><trkpt lat="45.55742879688782" lon="10.397313724698519"><ele>195.66666666666666</ele><time>2026-04-30T14:41:10Z</time></trkpt><trkpt lat="45.557414144864715" lon="10.397420827556557"><ele>196.0</ele><time>2026-04-30T14:41:12Z</time></trkpt><trkpt lat="45.55739763267848" lon="10.39753351919429"><ele>196.83333333333331</ele><time>2026-04-30T14:41:15Z</time></trkpt><trkpt lat="45.55733790596712" lon="10.39759459611854"><ele>197.66666666666666</ele><time>2026-04-30T14:41:18Z</time></trkpt><trkpt lat="45.55729569700227" lon="10.397698094102099"><ele>198.5</ele><time>2026-04-30T14:41:22Z</time></trkpt><trkpt lat="45.5572771636713" lon="10.397818537616514"><ele>199.33333333333331</ele><time>2026-04-30T14:41:26Z</time></trkpt><trkpt lat="45.55725919723508" lon="10.397916317080277"><ele>200.16666666666666</ele><time>2026-04-30T14:41:29Z</time></trkpt><trkpt lat="45.55723962357198" lon="10.398018339524686"><ele>201.0</ele><time>2026-04-30T14:41:32Z</time></trkpt><trkpt lat="45.55722690862861" lon="10.398110812991538"><ele>203.14285714285714</ele><time>2026-04-30T14:41:36Z</time></trkpt><trkpt lat="45.5572129400388" lon="10.398204727148979"><ele>205.2857142857143</ele><time>2026-04-30T14:41:39Z</time></trkpt><trkpt lat="45.55722105481832" lon="10.398294598266938"><ele>207.42857142857144</ele><time>2026-04-30T14:41:43Z</time></trkpt><trkpt lat="45.55722927295577" lon="10.398403042273033"><ele>209.57142857142856</ele><time>2026-04-30T14:41:46Z</time></trkpt><trkpt lat="45.55720530603816" lon="10.398497830802551"><ele>211.71428571428572</ele><time>2026-04-30T14:41:51Z</time></trkpt><trkpt lat="45.557166069252204" lon="10.398572086963075"><ele>213.85714285714286</ele><time>2026-04-30T14:41:55Z</time></trkpt><trkpt lat="45.55723716952375" lon="10.398677998648404"><ele>216.0</ele><time>2026-04-30T14:50:28Z</time></trkpt><trkpt lat="45.55728654816813" lon="10.398603204283251"><ele>216.0</ele><time>2026-04-30T14:50:30Z</time></trkpt><trkpt lat="45.5573306530393" lon="10.398529121819829"><ele>216.0</ele><time>2026-04-30T14:50:33Z</time></trkpt><trkpt lat="45.55740389253824" lon="10.398484995873613"><ele>216.0</ele><time>2026-04-30T14:50:36Z</time></trkpt><trkpt lat="45.55747260110838" lon="10.398416837420003"><ele>216.0</ele><time>2026-04-30T14:50:40Z</time></trkpt><trkpt lat="45.55753892063449" lon="10.398378450955892"><ele>216.0</ele><time>2026-04-30T14:50:44Z</time></trkpt><trkpt lat="45.557603236841366" lon="10.39834619435677"><ele>216.0</ele><time>2026-04-30T14:50:47Z</time></trkpt><trkpt lat="45.55766228034643" lon="10.398310802825177"><ele>216.0</ele><time>2026-04-30T14:50:50Z</time></trkpt><trkpt lat="45.55772500019922" lon="10.39824337900064"><ele>216.0</ele><time>2026-04-30T14:50:54Z</time></trkpt><trkpt lat="45.55778127834341" lon="10.398186949928641"><ele>216.0</ele><time>2026-04-30T14:50:57Z</time></trkpt><trkpt lat="45.55783486604306" lon="10.398129394039477"><ele>216.0</ele><time>2026-04-30T14:51:00Z</time></trkpt><trkpt lat="45.557897745108704" lon="10.398059272025936"><ele>216.0</ele><time>2026-04-30T14:51:06Z</time></trkpt><trkpt lat="45.557935653847274" lon="10.397982559825978"><ele>216.0</ele><time>2026-04-30T14:51:11Z</time></trkpt><trkpt lat="45.558022634727095" lon="10.397899154921843"><ele>216.0</ele><time>2026-04-30T14:52:26Z</time></trkpt><trkpt lat="45.55808472605752" lon="10.39785129005014"><ele>218.16666666666666</ele><time>2026-04-30T14:52:31Z</time></trkpt><trkpt lat="45.55814577776679" lon="10.397772417243447"><ele>220.33333333333331</ele><time>2026-04-30T14:52:36Z</time></trkpt><trkpt lat="45.55819900208137" lon="10.397716782028663"><ele>222.5</ele><time>2026-04-30T14:52:40Z</time></trkpt><trkpt lat="45.558262590292856" lon="10.397657781301383"><ele>224.66666666666666</ele><time>2026-04-30T14:52:43Z</time></trkpt><trkpt lat="45.558329336500464" lon="10.397582935232109"><ele>226.83333333333331</ele><time>2026-04-30T14:52:46Z</time></trkpt><trkpt lat="45.558379786073125" lon="10.397520289405"><ele>229.0</ele><time>2026-04-30T14:52:49Z</time></trkpt><trkpt lat="45.55844513674576" lon="10.397441687099239"><ele>228.99999999999997</ele><time>2026-04-30T14:52:52Z</time></trkpt><trkpt lat="45.558508771179206" lon="10.397353693445705"><ele>229.0</ele><time>2026-04-30T14:52:55Z</time></trkpt><trkpt lat="45.55857870128432" lon="10.397265090434948"><ele>229.0</ele><time>2026-04-30T14:52:58Z</time></trkpt><trkpt lat="45.55863678265761" lon="10.39716376891067"><ele>229.0</ele><time>2026-04-30T14:53:01Z</time></trkpt><trkpt lat="45.55867650462179" lon="10.397067840467761"><ele>228.99999999999997</ele><time>2026-04-30T14:53:04Z</time></trkpt><trkpt lat="45.55871844017315" lon="10.396964984111673"><ele>229.0</ele><time>2026-04-30T14:53:07Z</time></trkpt><trkpt lat="45.5587539244258" lon="10.396868255068354"><ele>231.83333333333331</ele><time>2026-04-30T14:53:10Z</time></trkpt><trkpt lat="45.55879963234853" lon="10.396773897634963"><ele>234.66666666666666</ele><time>2026-04-30T14:53:13Z</time></trkpt><trkpt lat="45.558850298514976" lon="10.396673874945638"><ele>237.5</ele><time>2026-04-30T14:53:16Z</time></trkpt><trkpt lat="45.55890383668734" lon="10.396585615568608"><ele>240.33333333333331</ele><time>2026-04-30T14:53:19Z</time></trkpt><trkpt lat="45.55895263724896" lon="10.396519478492747"><ele>243.16666666666666</ele><time>2026-04-30T14:53:22Z</time></trkpt><trkpt lat="45.558994478206465" lon="10.39642234552802"><ele>246.0</ele><time>2026-04-30T14:53:25Z</time></trkpt><trkpt lat="45.559040458082634" lon="10.396333128618616"><ele>246.0</ele><time>2026-04-30T14:53:28Z</time></trkpt><trkpt lat="45.559065761939294" lon="10.396222193985418"><ele>246.0</ele><time>2026-04-30T14:53:31Z</time></trkpt><trkpt lat="45.55908442854593" lon="10.39612078617045"><ele>246.0</ele><time>2026-04-30T14:53:33Z</time></trkpt><trkpt lat="45.5591077187116" lon="10.396014362417148"><ele>246.0</ele><time>2026-04-30T14:53:36Z</time></trkpt><trkpt lat="45.559133483930985" lon="10.395908474129175"><ele>246.0</ele><time>2026-04-30T14:53:39Z</time></trkpt><trkpt lat="45.559142207650446" lon="10.395810387001688"><ele>246.0</ele><time>2026-04-30T14:53:42Z</time></trkpt><trkpt lat="45.5591514581571" lon="10.395690479186214"><ele>246.0</ele><time>2026-04-30T14:53:45Z</time></trkpt><trkpt lat="45.55913648223059" lon="10.395584767677613"><ele>246.0</ele><time>2026-04-30T14:53:48Z</time></trkpt><trkpt lat="45.559141786852756" lon="10.39547779327296"><ele>246.0</ele><time>2026-04-30T14:53:51Z</time></trkpt><trkpt lat="45.559137957714846" lon="10.395359558175972"><ele>246.0</ele><time>2026-04-30T14:53:54Z</time></trkpt><trkpt lat="45.55911278580934" lon="10.395239384058335"><ele>246.0</ele><time>2026-04-30T14:53:58Z</time></trkpt><trkpt lat="45.55910084134057" lon="10.395117221652404"><ele>246.0</ele><time>2026-04-30T14:54:01Z</time></trkpt><trkpt lat="45.55910415954082" lon="10.39500508290816"><ele>246.8571428571429</ele><time>2026-04-30T14:54:04Z</time></trkpt><trkpt lat="45.559076210180294" lon="10.394898063863305"><ele>247.71428571428572</ele><time>2026-04-30T14:54:07Z</time></trkpt><trkpt lat="45.559073109143796" lon="10.394800555764666"><ele>248.57142857142858</ele><time>2026-04-30T14:54:10Z</time></trkpt><trkpt lat="45.55905443943037" lon="10.39470253103601"><ele>249.42857142857144</ele><time>2026-04-30T14:54:13Z</time></trkpt><trkpt lat="45.55903432918793" lon="10.394607555764596"><ele>250.28571428571428</ele><time>2026-04-30T14:54:17Z</time></trkpt><trkpt lat="45.55901631301995" lon="10.394516555026687"><ele>251.14285714285714</ele><time>2026-04-30T14:54:23Z</time></trkpt><trkpt lat="45.55898785768655" lon="10.394405858315528"><ele>252.0</ele><time>2026-04-30T14:54:29Z</time></trkpt><trkpt lat="45.558978410770216" lon="10.394309342552878"><ele>254.16666666666666</ele><time>2026-04-30T14:54:34Z</time></trkpt><trkpt lat="45.55895396721745" lon="10.39419908507809"><ele>256.3333333333333</ele><time>2026-04-30T14:54:39Z</time></trkpt><trkpt lat="45.558939038376856" lon="10.394104203487899"><ele>258.5</ele><time>2026-04-30T14:54:42Z</time></trkpt><trkpt lat="45.55892030468196" lon="10.393989669665986"><ele>260.66666666666663</ele><time>2026-04-30T14:54:46Z</time></trkpt><trkpt lat="45.55890953625073" lon="10.393877261432154"><ele>262.8333333333333</ele><time>2026-04-30T14:54:50Z</time></trkpt><trkpt lat="45.55888613108817" lon="10.393771648751336"><ele>265.0</ele><time>2026-04-30T14:54:54Z</time></trkpt><trkpt lat="45.55886255764585" lon="10.393669598645273"><ele>266.85714285714283</ele><time>2026-04-30T14:54:58Z</time></trkpt><trkpt lat="45.55884810331208" lon="10.393577943871698"><ele>268.7142857142857</ele><time>2026-04-30T14:55:02Z</time></trkpt><trkpt lat="45.558853488045486" lon="10.393484075293625"><ele>270.57142857142856</ele><time>2026-04-30T14:56:13Z</time></trkpt><trkpt lat="45.558880057441606" lon="10.393383171373634"><ele>272.42857142857144</ele><time>2026-04-30T14:56:16Z</time></trkpt><trkpt lat="45.558872860827684" lon="10.393268193236992"><ele>274.2857142857143</ele><time>2026-04-30T14:56:20Z</time></trkpt><trkpt lat="45.55887907393846" lon="10.393136501042536"><ele>276.1428571428571</ele><time>2026-04-30T14:56:24Z</time></trkpt><trkpt lat="45.558886549645905" lon="10.393041540339432"><ele>278.0</ele><time>2026-04-30T14:56:27Z</time></trkpt><trkpt lat="45.558881017902465" lon="10.392951651637325"><ele>279.0</ele><time>2026-04-30T14:56:30Z</time></trkpt><trkpt lat="45.5588929544059" lon="10.392855911835413"><ele>280.0</ele><time>2026-04-30T14:56:34Z</time></trkpt><trkpt lat="45.558901348445566" lon="10.392761263063322"><ele>281.0</ele><time>2026-04-30T14:56:37Z</time></trkpt><trkpt lat="45.55891090804734" lon="10.392657305160562"><ele>282.0</ele><time>2026-04-30T14:56:40Z</time></trkpt><trkpt lat="45.55891010267488" lon="10.392563503061258"><ele>283.0</ele><time>2026-04-30T14:56:43Z</time></trkpt><trkpt lat="45.558919345099426" lon="10.392433144151788"><ele>284.0</ele><time>2026-04-30T14:56:46Z</time></trkpt><trkpt lat="45.558928008069444" lon="10.392327234133036"><ele>285.0</ele><time>2026-04-30T14:56:49Z</time></trkpt><trkpt lat="45.55894041822856" lon="10.39222708724705"><ele>284.85714285714283</ele><time>2026-04-30T14:56:51Z</time></trkpt><trkpt lat="45.55894431024395" lon="10.392097181350053"><ele>284.7142857142857</ele><time>2026-04-30T14:56:55Z</time></trkpt><trkpt lat="45.55895253471722" lon="10.392007082733913"><ele>284.57142857142856</ele><time>2026-04-30T14:56:57Z</time></trkpt><trkpt lat="45.55894976120082" lon="10.391898185340345"><ele>284.42857142857144</ele><time>2026-04-30T14:57:00Z</time></trkpt><trkpt lat="45.5589588289087" lon="10.391805547445514"><ele>284.2857142857143</ele><time>2026-04-30T14:57:03Z</time></trkpt><trkpt lat="45.55896395513611" lon="10.391712113437816"><ele>284.1428571428571</ele><time>2026-04-30T14:57:06Z</time></trkpt><trkpt lat="45.558966922414854" lon="10.391604882452514"><ele>284.0</ele><time>2026-04-30T14:57:09Z</time></trkpt><trkpt lat="45.558968535281046" lon="10.391505093281932"><ele>284.0</ele><time>2026-04-30T14:57:12Z</time></trkpt><trkpt lat="45.558987646922375" lon="10.391388201026423"><ele>284.0</ele><time>2026-04-30T14:57:15Z</time></trkpt><trkpt lat="45.558951793929" lon="10.391482398017734"><ele>284.0</ele><time>2026-04-30T14:57:49Z</time></trkpt><trkpt lat="45.55895278330483" lon="10.391616421206926"><ele>284.0</ele><time>2026-04-30T14:57:52Z</time></trkpt><trkpt lat="45.558932048881815" lon="10.391752789113738"><ele>284.0</ele><time>2026-04-30T14:57:54Z</time></trkpt><trkpt lat="45.55893224473998" lon="10.391912698299505"><ele>284.0</ele><time>2026-04-30T14:57:56Z</time></trkpt><trkpt lat="45.55889200041792" lon="10.39208362896362"><ele>284.0</ele><time>2026-04-30T14:57:58Z</time></trkpt><trkpt lat="45.558887828586336" lon="10.392191959778328"><ele>284.0</ele><time>2026-04-30T14:57:59Z</time></trkpt><trkpt lat="45.55888226503703" lon="10.39229208347898"><ele>284.0</ele><time>2026-04-30T14:58:00Z</time></trkpt><trkpt lat="45.55887466616076" lon="10.392405608251632"><ele>284.0</ele><time>2026-04-30T14:58:01Z</time></trkpt><trkpt lat="45.558865631873296" lon="10.39252413752356"><ele>284.0</ele><time>2026-04-30T14:58:02Z</time></trkpt><trkpt lat="45.558855581600554" lon="10.392645767246497"><ele>284.2</ele><time>2026-04-30T14:58:03Z</time></trkpt><trkpt lat="45.558843731633516" lon="10.392774616420422"><ele>284.4</ele><time>2026-04-30T14:58:04Z</time></trkpt><trkpt lat="45.55883085065408" lon="10.392909997353858"><ele>284.6</ele><time>2026-04-30T14:58:05Z</time></trkpt><trkpt lat="45.558818290723394" lon="10.39304200400727"><ele>284.8</ele><time>2026-04-30T14:58:06Z</time></trkpt><trkpt lat="45.558807662806856" lon="10.39317881676042"><ele>285.0</ele><time>2026-04-30T14:58:07Z</time></trkpt><trkpt lat="45.55880836848495" lon="10.39331865300875"><ele>283.6</ele><time>2026-04-30T14:58:08Z</time></trkpt><trkpt lat="45.55883765315637" lon="10.39346385774792"><ele>282.2</ele><time>2026-04-30T14:58:09Z</time></trkpt><trkpt lat="45.55888821572952" lon="10.393605806564727"><ele>280.8</ele><time>2026-04-30T14:58:10Z</time></trkpt><trkpt lat="45.558935598212585" lon="10.393723982938475"><ele>279.4</ele><time>2026-04-30T14:58:11Z</time></trkpt><trkpt lat="45.55897863417729" lon="10.393839044853706"><ele>278.0</ele><time>2026-04-30T14:58:12Z</time></trkpt><trkpt lat="45.55902507594408" lon="10.393963212570712"><ele>275.83333333333337</ele><time>2026-04-30T14:58:13Z</time></trkpt><trkpt lat="45.55906795969289" lon="10.394074301069612"><ele>273.6666666666667</ele><time>2026-04-30T14:58:14Z</time></trkpt><trkpt lat="45.559111210179566" lon="10.394185107119636"><ele>271.5</ele><time>2026-04-30T14:58:15Z</time></trkpt><trkpt lat="45.559153098619184" lon="10.394300106849904"><ele>269.3333333333333</ele><time>2026-04-30T14:58:16Z</time></trkpt><trkpt lat="45.55918726014859" lon="10.39441504643366"><ele>267.16666666666663</ele><time>2026-04-30T14:58:17Z</time></trkpt><trkpt lat="45.559231325626314" lon="10.394527402023181"><ele>265.0</ele><time>2026-04-30T14:58:18Z</time></trkpt><trkpt lat="45.55924241393059" lon="10.394657366426795"><ele>262.8333333333333</ele><time>2026-04-30T14:58:19Z</time></trkpt><trkpt lat="45.55926562771744" lon="10.394764657904956"><ele>260.66666666666663</ele><time>2026-04-30T14:58:20Z</time></trkpt><trkpt lat="45.55930037225663" lon="10.394871594619653"><ele>258.5</ele><time>2026-04-30T14:58:21Z</time></trkpt><trkpt lat="45.55931917218162" lon="10.394982458793615"><ele>256.3333333333333</ele><time>2026-04-30T14:58:22Z</time></trkpt><trkpt lat="45.55934235285064" lon="10.395098203297458"><ele>254.16666666666666</ele><time>2026-04-30T14:58:23Z</time></trkpt><trkpt lat="45.5593612476282" lon="10.395225077458445"><ele>252.0</ele><time>2026-04-30T14:58:24Z</time></trkpt><trkpt lat="45.559366952770695" lon="10.395363384482927"><ele>252.0</ele><time>2026-04-30T14:58:25Z</time></trkpt><trkpt lat="45.55937384706986" lon="10.39548676280194"><ele>252.0</ele><time>2026-04-30T14:58:26Z</time></trkpt><trkpt lat="45.55937657381092" lon="10.395619072815363"><ele>252.0</ele><time>2026-04-30T14:58:27Z</time></trkpt><trkpt lat="45.55937107287222" lon="10.395767431094582"><ele>252.0</ele><time>2026-04-30T14:58:28Z</time></trkpt><trkpt lat="45.55933290174871" lon="10.395910376975037"><ele>252.0</ele><time>2026-04-30T14:58:29Z</time></trkpt><trkpt lat="45.55928736520672" lon="10.396039106209551"><ele>252.2</ele><time>2026-04-30T14:58:30Z</time></trkpt><trkpt lat="45.559249758679584" lon="10.396166143035678"><ele>252.39999999999998</ele><time>2026-04-30T14:58:31Z</time></trkpt><trkpt lat="45.559211065712084" lon="10.396301358421935"><ele>252.60000000000002</ele><time>2026-04-30T14:58:32Z</time></trkpt><trkpt lat="45.559167299972174" lon="10.396441966286803"><ele>252.8</ele><time>2026-04-30T14:58:33Z</time></trkpt><trkpt lat="45.5591197560368" lon="10.396583791480529"><ele>253.0</ele><time>2026-04-30T14:58:34Z</time></trkpt><trkpt lat="45.55907665354897" lon="10.39672900232513"><ele>253.0</ele><time>2026-04-30T14:58:35Z</time></trkpt><trkpt lat="45.55900931008547" lon="10.39685205712907"><ele>253.0</ele><time>2026-04-30T14:58:36Z</time></trkpt><trkpt lat="45.55892549926544" lon="10.396950857949445"><ele>253.0</ele><time>2026-04-30T14:58:37Z</time></trkpt><trkpt lat="45.55884888707954" lon="10.397062942495563"><ele>253.0</ele><time>2026-04-30T14:58:38Z</time></trkpt><trkpt lat="45.55877112794993" lon="10.397173144962572"><ele>253.0</ele><time>2026-04-30T14:58:39Z</time></trkpt><trkpt lat="45.5586914301808" lon="10.397287469502512"><ele>248.2</ele><time>2026-04-30T14:58:40Z</time></trkpt><trkpt lat="45.55862501608447" lon="10.397415440948684"><ele>243.4</ele><time>2026-04-30T14:58:41Z</time></trkpt><trkpt lat="45.558554637756885" lon="10.397519702853703"><ele>238.59999999999997</ele><time>2026-04-30T14:58:42Z</time></trkpt><trkpt lat="45.55846432242646" lon="10.39761962267082"><ele>233.79999999999998</ele><time>2026-04-30T14:58:43Z</time></trkpt><trkpt lat="45.558386845276395" lon="10.397735905650633"><ele>229.0</ele><time>2026-04-30T14:58:44Z</time></trkpt><trkpt lat="45.558323605274275" lon="10.397866604976281"><ele>229.0</ele><time>2026-04-30T14:58:45Z</time></trkpt><trkpt lat="45.55824255277251" lon="10.397973218546023"><ele>229.0</ele><time>2026-04-30T14:58:46Z</time></trkpt><trkpt lat="45.55816260664894" lon="10.39809688280576"><ele>229.0</ele><time>2026-04-30T14:58:47Z</time></trkpt><trkpt lat="45.558080260763475" lon="10.398201808525792"><ele>229.0</ele><time>2026-04-30T14:58:48Z</time></trkpt><trkpt lat="45.557992061077876" lon="10.398313970148896"><ele>225.75</ele><time>2026-04-30T14:58:49Z</time></trkpt><trkpt lat="45.55791273279735" lon="10.398445288530175"><ele>222.5</ele><time>2026-04-30T14:58:50Z</time></trkpt><trkpt lat="45.55782034537006" lon="10.39854322469878"><ele>219.25</ele><time>2026-04-30T14:58:51Z</time></trkpt><trkpt lat="45.55774658328176" lon="10.398656350333386"><ele>216.0</ele><time>2026-04-30T14:58:52Z</time></trkpt><trkpt lat="45.55766488335369" lon="10.398769854772805"><ele>218.8</ele><time>2026-04-30T14:58:53Z</time></trkpt><trkpt lat="45.5576104834304" lon="10.39892322343127"><ele>221.60000000000002</ele><time>2026-04-30T14:58:54Z</time></trkpt><trkpt lat="45.55757272998578" lon="10.399030215213475"><ele>224.4</ele><time>2026-04-30T14:58:55Z</time></trkpt><trkpt lat="45.55752359269515" lon="10.399111497767132"><ele>227.2</ele><time>2026-04-30T14:58:56Z</time></trkpt><trkpt lat="45.55745534975722" lon="10.399196612468604"><ele>230.0</ele><time>2026-04-30T14:58:57Z</time></trkpt><trkpt lat="45.55736918011243" lon="10.399269353296788"><ele>230.0</ele><time>2026-04-30T14:58:58Z</time></trkpt><trkpt lat="45.557288882381634" lon="10.399354078158918"><ele>230.0</ele><time>2026-04-30T14:58:59Z</time></trkpt><trkpt lat="45.55721255577537" lon="10.399424642216248"><ele>230.0</ele><time>2026-04-30T14:59:00Z</time></trkpt><trkpt lat="45.55713832352695" lon="10.399491451468844"><ele>230.0</ele><time>2026-04-30T14:59:01Z</time></trkpt><trkpt lat="45.55706030952437" lon="10.399566889494777"><ele>230.0</ele><time>2026-04-30T14:59:02Z</time></trkpt><trkpt lat="45.55699370454228" lon="10.399629941714464"><ele>231.0</ele><time>2026-04-30T14:59:03Z</time></trkpt><trkpt lat="45.55696059379999" lon="10.399773434817002"><ele>232.0</ele><time>2026-04-30T14:59:04Z</time></trkpt><trkpt lat="45.55696469296855" lon="10.399905297108237"><ele>233.0</ele><time>2026-04-30T14:59:05Z</time></trkpt><trkpt lat="45.55694830420846" lon="10.40001141313072"><ele>234.0</ele><time>2026-04-30T14:59:06Z</time></trkpt><trkpt lat="45.55698427111089" lon="10.4001302667408"><ele>235.0</ele><time>2026-04-30T14:59:07Z</time></trkpt><trkpt lat="45.55704307964176" lon="10.400222795602499"><ele>235.0</ele><time>2026-04-30T14:59:08Z</time></trkpt><trkpt lat="45.55711252491731" lon="10.400339602604427"><ele>235.0</ele><time>2026-04-30T14:59:10Z</time></trkpt><trkpt lat="45.55710036059567" lon="10.400463410593895"><ele>235.0</ele><time>2026-04-30T14:59:12Z</time></trkpt><trkpt lat="45.55702900207307" lon="10.400551818608786"><ele>235.0</ele><time>2026-04-30T14:59:14Z</time></trkpt><trkpt lat="45.55692457406337" lon="10.400549988211486"><ele>235.0</ele><time>2026-04-30T14:59:16Z</time></trkpt><trkpt lat="45.55680686293986" lon="10.40050397987736"><ele>230.83333333333331</ele><time>2026-04-30T14:59:18Z</time></trkpt><trkpt lat="45.556744517899915" lon="10.400485784578464"><ele>226.66666666666666</ele><time>2026-04-30T14:59:19Z</time></trkpt><trkpt lat="45.556670913852344" lon="10.400462774792269"><ele>222.5</ele><time>2026-04-30T14:59:20Z</time></trkpt><trkpt lat="45.55659706452027" lon="10.40043811266265"><ele>218.33333333333331</ele><time>2026-04-30T14:59:21Z</time></trkpt><trkpt lat="45.55652097868045" lon="10.40042736481103"><ele>214.16666666666666</ele><time>2026-04-30T14:59:22Z</time></trkpt><trkpt lat="45.556440849220046" lon="10.40041481834833"><ele>210.0</ele><time>2026-04-30T14:59:23Z</time></trkpt><trkpt lat="45.5563617691576" lon="10.40040210645159"><ele>210.0</ele><time>2026-04-30T14:59:24Z</time></trkpt><trkpt lat="45.556278028813" lon="10.400386111556639"><ele>210.0</ele><time>2026-04-30T14:59:25Z</time></trkpt><trkpt lat="45.55619148231554" lon="10.400376179533461"><ele>210.0</ele><time>2026-04-30T14:59:26Z</time></trkpt><trkpt lat="45.556109083659614" lon="10.40035830547069"><ele>210.0</ele><time>2026-04-30T14:59:27Z</time></trkpt><trkpt lat="45.55602221426134" lon="10.400332933126977"><ele>210.0</ele><time>2026-04-30T14:59:28Z</time></trkpt><trkpt lat="45.55592920344091" lon="10.400298332228246"><ele>210.0</ele><time>2026-04-30T14:59:29Z</time></trkpt><trkpt lat="45.55583169781825" lon="10.40027181727674"><ele>208.0</ele><time>2026-04-30T14:59:30Z</time></trkpt><trkpt lat="45.55573370864439" lon="10.400253358897368"><ele>206.0</ele><time>2026-04-30T14:59:31Z</time></trkpt><trkpt lat="45.5556407301182" lon="10.400238237256177"><ele>204.0</ele><time>2026-04-30T14:59:32Z</time></trkpt><trkpt lat="45.55556105828987" lon="10.400217017061644"><ele>202.0</ele><time>2026-04-30T14:59:33Z</time></trkpt><trkpt lat="45.555488650811334" lon="10.400197983601204"><ele>200.0</ele><time>2026-04-30T14:59:34Z</time></trkpt><trkpt lat="45.55540776007768" lon="10.400157391581617"><ele>198.0</ele><time>2026-04-30T14:59:35Z</time></trkpt><trkpt lat="45.55530559176562" lon="10.40019885183124"><ele>197.66666666666666</ele><time>2026-04-30T14:59:36Z</time></trkpt><trkpt lat="45.55523106871869" lon="10.40023111530194"><ele>197.33333333333331</ele><time>2026-04-30T14:59:37Z</time></trkpt><trkpt lat="45.55518162823818" lon="10.40030505702386"><ele>197.0</ele><time>2026-04-30T14:59:38Z</time></trkpt><trkpt lat="45.55508352886134" lon="10.400336047219964"><ele>196.66666666666666</ele><time>2026-04-30T14:59:40Z</time></trkpt><trkpt lat="45.55501420683308" lon="10.400360316031568"><ele>196.33333333333331</ele><time>2026-04-30T14:59:42Z</time></trkpt><trkpt lat="45.55494957314012" lon="10.400377780942799"><ele>196.0</ele><time>2026-04-30T14:59:44Z</time></trkpt><trkpt lat="45.55485792468112" lon="10.400395927836797"><ele>196.0</ele><time>2026-04-30T14:59:47Z</time></trkpt><trkpt lat="45.554785820113494" lon="10.400401763672663"><ele>196.0</ele><time>2026-04-30T14:59:53Z</time></trkpt><trkpt lat="45.554716529554064" lon="10.400385795159977"><ele>196.0</ele><time>2026-04-30T15:00:03Z</time></trkpt><trkpt lat="45.55464326554057" lon="10.400404231957882"><ele>196.0</ele><time>2026-04-30T15:00:06Z</time></trkpt><trkpt lat="45.55457122348011" lon="10.400419046317365"><ele>196.0</ele><time>2026-04-30T15:00:08Z</time></trkpt><trkpt lat="45.55449972510136" lon="10.400430532090652"><ele>196.0</ele><time>2026-04-30T15:00:10Z</time></trkpt><trkpt lat="45.554418681739726" lon="10.400444958616927"><ele>196.0</ele><time>2026-04-30T15:00:12Z</time></trkpt><trkpt lat="45.554342799101434" lon="10.400464360621106"><ele>195.66666666666666</ele><time>2026-04-30T15:00:14Z</time></trkpt><trkpt lat="45.554275657323004" lon="10.400519720817343"><ele>195.33333333333331</ele><time>2026-04-30T15:00:16Z</time></trkpt><trkpt lat="45.554209491346676" lon="10.400499583337712"><ele>195.0</ele><time>2026-04-30T15:00:18Z</time></trkpt><trkpt lat="45.5541328566355" lon="10.400439871213269"><ele>194.66666666666669</ele><time>2026-04-30T15:00:21Z</time></trkpt><trkpt lat="45.55406622398191" lon="10.400398471613418"><ele>194.33333333333334</ele><time>2026-04-30T15:00:23Z</time></trkpt><trkpt lat="45.55399724527414" lon="10.40042212009195"><ele>194.0</ele><time>2026-04-30T15:00:25Z</time></trkpt><trkpt lat="45.553919777965774" lon="10.400422173618333"><ele>194.00000000000003</ele><time>2026-04-30T15:00:27Z</time></trkpt><trkpt lat="45.553820009321434" lon="10.40045348579509"><ele>194.0</ele><time>2026-04-30T15:00:30Z</time></trkpt><trkpt lat="45.55378059296007" lon="10.400569652611043"><ele>194.0</ele><time>2026-04-30T15:00:33Z</time></trkpt><trkpt lat="45.55379846414039" lon="10.40067560050207"><ele>194.0</ele><time>2026-04-30T15:00:35Z</time></trkpt><trkpt lat="45.553815936451294" lon="10.40076693339351"><ele>194.00000000000003</ele><time>2026-04-30T15:00:37Z</time></trkpt><trkpt lat="45.55381870313689" lon="10.400866741497138"><ele>194.0</ele><time>2026-04-30T15:00:40Z</time></trkpt><trkpt lat="45.55375439351492" lon="10.400799478324998"><ele>192.6</ele><time>2026-04-30T15:00:49Z</time></trkpt><trkpt lat="45.55374133354831" lon="10.40070717807608"><ele>191.2</ele><time>2026-04-30T15:00:58Z</time></trkpt><trkpt lat="45.55364173721951" lon="10.40083198771201"><ele>189.79999999999998</ele><time>2026-04-30T15:01:11Z</time></trkpt><trkpt lat="45.553585186038596" lon="10.400979947134383"><ele>188.39999999999998</ele><time>2026-04-30T15:01:13Z</time></trkpt><trkpt lat="45.553536483717664" lon="10.401122651920048"><ele>187.0</ele><time>2026-04-30T15:01:15Z</time></trkpt><trkpt lat="45.553519384679085" lon="10.40121276817214"><ele>187.16666666666669</ele><time>2026-04-30T15:01:16Z</time></trkpt><trkpt lat="45.55348783971171" lon="10.401337259432562"><ele>187.33333333333334</ele><time>2026-04-30T15:01:18Z</time></trkpt><trkpt lat="45.553465124177556" lon="10.4014347187252"><ele>187.5</ele><time>2026-04-30T15:01:20Z</time></trkpt><trkpt lat="45.553429518612035" lon="10.401519735416775"><ele>187.66666666666666</ele><time>2026-04-30T15:01:22Z</time></trkpt><trkpt lat="45.55339313718541" lon="10.401654148356185"><ele>187.83333333333331</ele><time>2026-04-30T15:01:25Z</time></trkpt><trkpt lat="45.55344502756288" lon="10.40173266643661"><ele>188.0</ele><time>2026-04-30T15:01:27Z</time></trkpt><trkpt lat="45.553464837045844" lon="10.401824762782045"><ele>188.0</ele><time>2026-04-30T15:01:34Z</time></trkpt><trkpt lat="45.55348644589839" lon="10.401914005565736"><ele>188.0</ele><time>2026-04-30T15:01:37Z</time></trkpt><trkpt lat="45.55352100564947" lon="10.4020120122922"><ele>188.0</ele><time>2026-04-30T15:01:40Z</time></trkpt><trkpt lat="45.553556224206204" lon="10.402114927475148"><ele>188.0</ele><time>2026-04-30T15:01:43Z</time></trkpt><trkpt lat="45.55359488455623" lon="10.40222641205186"><ele>188.0</ele><time>2026-04-30T15:01:46Z</time></trkpt><trkpt lat="45.55364474541743" lon="10.40234832005511"><ele>188.0</ele><time>2026-04-30T15:01:49Z</time></trkpt><trkpt lat="45.55368389091778" lon="10.40244220445528"><ele>191.16666666666666</ele><time>2026-04-30T15:01:51Z</time></trkpt><trkpt lat="45.55373149215672" lon="10.402530754204767"><ele>194.33333333333331</ele><time>2026-04-30T15:01:53Z</time></trkpt><trkpt lat="45.55377536545184" lon="10.402613001442203"><ele>197.5</ele><time>2026-04-30T15:01:55Z</time></trkpt><trkpt lat="45.55381669321117" lon="10.402719620345303"><ele>200.66666666666666</ele><time>2026-04-30T15:01:57Z</time></trkpt><trkpt lat="45.55386185715132" lon="10.402802685505058"><ele>203.83333333333334</ele><time>2026-04-30T15:01:59Z</time></trkpt><trkpt lat="45.5539203194064" lon="10.402896359064208"><ele>207.0</ele><time>2026-04-30T15:02:01Z</time></trkpt><trkpt lat="45.55397124396131" lon="10.402978981132629"><ele>204.83333333333334</ele><time>2026-04-30T15:02:03Z</time></trkpt><trkpt lat="45.55401200757651" lon="10.403071273227798"><ele>202.66666666666669</ele><time>2026-04-30T15:02:05Z</time></trkpt><trkpt lat="45.55408757840236" lon="10.403153371234806"><ele>200.5</ele><time>2026-04-30T15:02:07Z</time></trkpt><trkpt lat="45.5541368818367" lon="10.403256896752081"><ele>198.33333333333334</ele><time>2026-04-30T15:02:09Z</time></trkpt><trkpt lat="45.554185826288226" lon="10.403361214756318"><ele>196.16666666666669</ele><time>2026-04-30T15:02:11Z</time></trkpt><trkpt lat="45.55422685471389" lon="10.403463451648104"><ele>194.0</ele><time>2026-04-30T15:02:13Z</time></trkpt><trkpt lat="45.55426225706312" lon="10.403566732371583"><ele>194.00000000000003</ele><time>2026-04-30T15:02:15Z</time></trkpt><trkpt lat="45.554292282356705" lon="10.40366522936156"><ele>194.0</ele><time>2026-04-30T15:02:17Z</time></trkpt><trkpt lat="45.55432539342214" lon="10.403786991967259"><ele>194.0</ele><time>2026-04-30T15:02:20Z</time></trkpt><trkpt lat="45.554347115947735" lon="10.403891320182977"><ele>194.0</ele><time>2026-04-30T15:02:22Z</time></trkpt><trkpt lat="45.55437824762325" lon="10.404000566081146"><ele>194.00000000000003</ele><time>2026-04-30T15:02:24Z</time></trkpt><trkpt lat="45.55441908543552" lon="10.404090130182965"><ele>194.0</ele><time>2026-04-30T15:02:26Z</time></trkpt><trkpt lat="45.5544486134469" lon="10.404220439437225"><ele>193.79999999999998</ele><time>2026-04-30T15:02:28Z</time></trkpt><trkpt lat="45.554485100146486" lon="10.404340728476308"><ele>193.6</ele><time>2026-04-30T15:02:30Z</time></trkpt><trkpt lat="45.55450866375042" lon="10.404469895610903"><ele>193.4</ele><time>2026-04-30T15:02:32Z</time></trkpt><trkpt lat="45.554538434819676" lon="10.404604019713691"><ele>193.2</ele><time>2026-04-30T15:02:34Z</time></trkpt><trkpt lat="45.55456457533577" lon="10.4047426623608"><ele>193.0</ele><time>2026-04-30T15:02:36Z</time></trkpt><trkpt lat="45.55459588689466" lon="10.404869890163804"><ele>193.0</ele><time>2026-04-30T15:02:38Z</time></trkpt><trkpt lat="45.55462683764495" lon="10.405001808336449"><ele>193.0</ele><time>2026-04-30T15:02:40Z</time></trkpt><trkpt lat="45.55466346824181" lon="10.405120686032745"><ele>193.0</ele><time>2026-04-30T15:02:42Z</time></trkpt><trkpt lat="45.55469578989999" lon="10.405239265032149"><ele>193.0</ele><time>2026-04-30T15:02:44Z</time></trkpt><trkpt lat="45.55472726664723" lon="10.40535690623249"><ele>193.0</ele><time>2026-04-30T15:02:46Z</time></trkpt><trkpt lat="45.55475831695936" lon="10.405499078496113"><ele>191.83333333333331</ele><time>2026-04-30T15:02:48Z</time></trkpt><trkpt lat="45.5547982375136" lon="10.405608974795204"><ele>190.66666666666666</ele><time>2026-04-30T15:02:50Z</time></trkpt><trkpt lat="45.554821021924674" lon="10.405730676349265"><ele>189.5</ele><time>2026-04-30T15:02:52Z</time></trkpt><trkpt lat="45.55484967204285" lon="10.405836615046024"><ele>188.33333333333331</ele><time>2026-04-30T15:02:54Z</time></trkpt><trkpt lat="45.554924808459894" lon="10.405892441299743"><ele>187.16666666666666</ele><time>2026-04-30T15:02:56Z</time></trkpt><trkpt lat="45.55502459498576" lon="10.4059385366848"><ele>186.0</ele><time>2026-04-30T15:02:58Z</time></trkpt><trkpt lat="45.55509889377209" lon="10.40598289047393"><ele>186.0</ele><time>2026-04-30T15:03:00Z</time></trkpt><trkpt lat="45.555198212965806" lon="10.406029399307538"><ele>186.0</ele><time>2026-04-30T15:03:02Z</time></trkpt><trkpt lat="45.55528507026839" lon="10.40611436889268"><ele>186.0</ele><time>2026-04-30T15:03:04Z</time></trkpt><trkpt lat="45.55537475649295" lon="10.406236548744104"><ele>186.0</ele><time>2026-04-30T15:03:06Z</time></trkpt><trkpt lat="45.555436707500164" lon="10.40628477588507"><ele>186.0</ele><time>2026-04-30T15:03:07Z</time></trkpt><trkpt lat="45.5554870960908" lon="10.406353032355268"><ele>187.0</ele><time>2026-04-30T15:03:08Z</time></trkpt><trkpt lat="45.55554391538419" lon="10.406411522061692"><ele>188.0</ele><time>2026-04-30T15:03:09Z</time></trkpt><trkpt lat="45.55564408017572" lon="10.406493266793557"><ele>189.0</ele><time>2026-04-30T15:03:11Z</time></trkpt><trkpt lat="45.55572667331367" lon="10.406571504903551"><ele>190.0</ele><time>2026-04-30T15:03:13Z</time></trkpt><trkpt lat="45.555795556747896" lon="10.40667617855759"><ele>191.0</ele><time>2026-04-30T15:03:15Z</time></trkpt><trkpt lat="45.555858228967836" lon="10.406762445367809"><ele>191.0</ele><time>2026-04-30T15:03:17Z</time></trkpt><trkpt lat="45.55591102012013" lon="10.406849325356438"><ele>191.0</ele><time>2026-04-30T15:03:19Z</time></trkpt><trkpt lat="45.555964371130706" lon="10.406933963607798"><ele>191.0</ele><time>2026-04-30T15:03:21Z</time></trkpt><trkpt lat="45.556016614293846" lon="10.407031333912668"><ele>191.0</ele><time>2026-04-30T15:03:23Z</time></trkpt><trkpt lat="45.55607411779827" lon="10.407122244298684"><ele>191.0</ele><time>2026-04-30T15:03:25Z</time></trkpt><trkpt lat="45.55613234436527" lon="10.407196713025456"><ele>191.0</ele><time>2026-04-30T15:03:27Z</time></trkpt><trkpt lat="45.55618999235251" lon="10.407254844595029"><ele>192.5</ele><time>2026-04-30T15:03:29Z</time></trkpt><trkpt lat="45.556248473324686" lon="10.40730610882604"><ele>194.0</ele><time>2026-04-30T15:03:31Z</time></trkpt><trkpt lat="45.556322635587456" lon="10.40737393804281"><ele>195.5</ele><time>2026-04-30T15:03:34Z</time></trkpt><trkpt lat="45.55639219769639" lon="10.407456473037263"><ele>197.0</ele><time>2026-04-30T15:03:38Z</time></trkpt><trkpt lat="45.556450438839406" lon="10.407533322508856"><ele>198.50000000000003</ele><time>2026-04-30T15:03:41Z</time></trkpt><trkpt lat="45.55643021993806" lon="10.407665548472167"><ele>200.0</ele><time>2026-04-30T15:03:44Z</time></trkpt><trkpt lat="45.55638911921097" lon="10.407772409394664"><ele>200.00000000000003</ele><time>2026-04-30T15:03:46Z</time></trkpt><trkpt lat="45.55633167706134" lon="10.407864769752495"><ele>200.0</ele><time>2026-04-30T15:03:48Z</time></trkpt><trkpt lat="45.55625988587466" lon="10.407941225552118"><ele>200.0</ele><time>2026-04-30T15:03:50Z</time></trkpt><trkpt lat="45.556185307458456" lon="10.408017142993003"><ele>200.0</ele><time>2026-04-30T15:03:52Z</time></trkpt><trkpt lat="45.55611648015106" lon="10.408093592177712"><ele>200.00000000000003</ele><time>2026-04-30T15:03:54Z</time></trkpt><trkpt lat="45.55604674720522" lon="10.408166442497755"><ele>200.0</ele><time>2026-04-30T15:03:56Z</time></trkpt><trkpt lat="45.55599098130268" lon="10.40824776073078"><ele>197.83333333333334</ele><time>2026-04-30T15:03:58Z</time></trkpt><trkpt lat="45.55592570711057" lon="10.408324244337933"><ele>195.66666666666669</ele><time>2026-04-30T15:04:00Z</time></trkpt><trkpt lat="45.55585531866876" lon="10.408408472188938"><ele>193.5</ele><time>2026-04-30T15:04:02Z</time></trkpt><trkpt lat="45.55578959090187" lon="10.408487055302098"><ele>191.33333333333334</ele><time>2026-04-30T15:04:04Z</time></trkpt><trkpt lat="45.555724816577836" lon="10.408568923135642"><ele>189.16666666666669</ele><time>2026-04-30T15:04:06Z</time></trkpt><trkpt lat="45.55564841383805" lon="10.408662278287492"><ele>187.0</ele><time>2026-04-30T15:04:08Z</time></trkpt><trkpt lat="45.55557211421474" lon="10.408763239095812"><ele>187.0</ele><time>2026-04-30T15:04:10Z</time></trkpt><trkpt lat="45.55548008966193" lon="10.408815812755883"><ele>187.0</ele><time>2026-04-30T15:04:12Z</time></trkpt><trkpt lat="45.555412938610885" lon="10.408891089289552"><ele>187.0</ele><time>2026-04-30T15:04:14Z</time></trkpt><trkpt lat="45.55536518915354" lon="10.408995462161633"><ele>187.0</ele><time>2026-04-30T15:04:16Z</time></trkpt><trkpt lat="45.55531068620836" lon="10.409070326899052"><ele>187.0</ele><time>2026-04-30T15:04:18Z</time></trkpt><trkpt lat="45.55524743847876" lon="10.409116038326609"><ele>187.0</ele><time>2026-04-30T15:04:20Z</time></trkpt><trkpt lat="45.555189043348534" lon="10.409159145169449"><ele>186.66666666666669</ele><time>2026-04-30T15:04:23Z</time></trkpt><trkpt lat="45.5551208632146" lon="10.409180363622255"><ele>186.33333333333334</ele><time>2026-04-30T15:04:30Z</time></trkpt><trkpt lat="45.55504409907192" lon="10.409199230243397"><ele>186.0</ele><time>2026-04-30T15:04:32Z</time></trkpt><trkpt lat="45.55496364152076" lon="10.409275457043435"><ele>185.66666666666666</ele><time>2026-04-30T15:04:34Z</time></trkpt><trkpt lat="45.55490055195815" lon="10.409359605516237"><ele>185.33333333333331</ele><time>2026-04-30T15:04:36Z</time></trkpt><trkpt lat="45.554870888442224" lon="10.409464473997009"><ele>185.0</ele><time>2026-04-30T15:04:38Z</time></trkpt><trkpt lat="45.554794213909226" lon="10.409499759424987"><ele>185.0</ele><time>2026-04-30T15:04:40Z</time></trkpt><trkpt lat="45.55472869903699" lon="10.409551013425322"><ele>185.0</ele><time>2026-04-30T15:04:42Z</time></trkpt><trkpt lat="45.554661020713034" lon="10.409613706239945"><ele>185.0</ele><time>2026-04-30T15:04:44Z</time></trkpt><trkpt lat="45.55458659985235" lon="10.40967447595469"><ele>185.0</ele><time>2026-04-30T15:04:46Z</time></trkpt><trkpt lat="45.55451476298304" lon="10.40974765516188"><ele>185.0</ele><time>2026-04-30T15:04:48Z</time></trkpt><trkpt lat="45.55442859531838" lon="10.409794438585557"><ele>185.0</ele><time>2026-04-30T15:04:50Z</time></trkpt><trkpt lat="45.5543427168331" lon="10.409846076950881"><ele>185.0</ele><time>2026-04-30T15:04:52Z</time></trkpt><trkpt lat="45.55425810925057" lon="10.409888419137287"><ele>185.0</ele><time>2026-04-30T15:04:54Z</time></trkpt><trkpt lat="45.55417016072412" lon="10.409933997319717"><ele>185.0</ele><time>2026-04-30T15:04:56Z</time></trkpt><trkpt lat="45.55409402760153" lon="10.40998193042972"><ele>185.0</ele><time>2026-04-30T15:04:58Z</time></trkpt><trkpt lat="45.5540172009678" lon="10.410042646357835"><ele>185.0</ele><time>2026-04-30T15:05:00Z</time></trkpt><trkpt lat="45.5539290363479" lon="10.410099434778687"><ele>185.0</ele><time>2026-04-30T15:05:02Z</time></trkpt><trkpt lat="45.55384152113476" lon="10.410157526480337"><ele>185.0</ele><time>2026-04-30T15:05:04Z</time></trkpt><trkpt lat="45.553754150000934" lon="10.41023177864848"><ele>185.0</ele><time>2026-04-30T15:05:06Z</time></trkpt><trkpt lat="45.553671771982515" lon="10.410308117610308"><ele>185.0</ele><time>2026-04-30T15:05:08Z</time></trkpt><trkpt lat="45.55358306662571" lon="10.410383028081723"><ele>185.0</ele><time>2026-04-30T15:05:10Z</time></trkpt><trkpt lat="45.55349511464649" lon="10.410437585468502"><ele>184.83333333333331</ele><time>2026-04-30T15:05:12Z</time></trkpt><trkpt lat="45.55342333028954" lon="10.410525870794949"><ele>184.66666666666666</ele><time>2026-04-30T15:05:14Z</time></trkpt><trkpt lat="45.55332520472573" lon="10.410596283818098"><ele>184.5</ele><time>2026-04-30T15:05:16Z</time></trkpt><trkpt lat="45.553272209734345" lon="10.410669447437078"><ele>184.33333333333334</ele><time>2026-04-30T15:05:17Z</time></trkpt><trkpt lat="45.55320549424883" lon="10.41072984707307"><ele>184.16666666666669</ele><time>2026-04-30T15:05:18Z</time></trkpt><trkpt lat="45.55313363792616" lon="10.41076635300306"><ele>184.0</ele><time>2026-04-30T15:05:19Z</time></trkpt><trkpt lat="45.553084247001934" lon="10.41083776230992"><ele>184.0</ele><time>2026-04-30T15:05:20Z</time></trkpt><trkpt lat="45.55302575252769" lon="10.410886954312199"><ele>184.0</ele><time>2026-04-30T15:05:21Z</time></trkpt><trkpt lat="45.55296876568466" lon="10.41093161488047"><ele>184.0</ele><time>2026-04-30T15:05:22Z</time></trkpt><trkpt lat="45.552911250929554" lon="10.410976484067373"><ele>184.0</ele><time>2026-04-30T15:05:23Z</time></trkpt><trkpt lat="45.552819000291365" lon="10.41106277885904"><ele>184.0</ele><time>2026-04-30T15:05:25Z</time></trkpt><trkpt lat="45.55272516128363" lon="10.411129314039348"><ele>184.0</ele><time>2026-04-30T15:05:27Z</time></trkpt><trkpt lat="45.552641195225085" lon="10.411204333621718"><ele>184.0</ele><time>2026-04-30T15:05:29Z</time></trkpt><trkpt lat="45.552570827716515" lon="10.411294581684439"><ele>184.0</ele><time>2026-04-30T15:05:31Z</time></trkpt><trkpt lat="45.552468226896245" lon="10.411378948771754"><ele>184.0</ele><time>2026-04-30T15:05:33Z</time></trkpt><trkpt lat="45.55237133889531" lon="10.411470954704628"><ele>184.0</ele><time>2026-04-30T15:05:35Z</time></trkpt><trkpt lat="45.55227053455439" lon="10.411558524194271"><ele>184.0</ele><time>2026-04-30T15:05:37Z</time></trkpt><trkpt lat="45.552207998814986" lon="10.411582966147371"><ele>184.0</ele><time>2026-04-30T15:05:38Z</time></trkpt><trkpt lat="45.55215775171598" lon="10.411658211261452"><ele>184.0</ele><time>2026-04-30T15:05:39Z</time></trkpt><trkpt lat="45.552061526387384" lon="10.411703793574574"><ele>184.0</ele><time>2026-04-30T15:05:41Z</time></trkpt><trkpt lat="45.551974444298516" lon="10.411800457610456"><ele>184.0</ele><time>2026-04-30T15:05:43Z</time></trkpt><trkpt lat="45.55189612928379" lon="10.41186865075257"><ele>184.0</ele><time>2026-04-30T15:05:45Z</time></trkpt><trkpt lat="45.55183360508616" lon="10.411997450805437"><ele>183.83333333333334</ele><time>2026-04-30T15:05:47Z</time></trkpt><trkpt lat="45.55184644567973" lon="10.41208882375186"><ele>183.66666666666669</ele><time>2026-04-30T15:05:48Z</time></trkpt><trkpt lat="45.55192307631656" lon="10.412156822197986"><ele>183.5</ele><time>2026-04-30T15:05:49Z</time></trkpt><trkpt lat="45.55198219743191" lon="10.412271226469818"><ele>183.33333333333334</ele><time>2026-04-30T15:05:51Z</time></trkpt><trkpt lat="45.552034017374005" lon="10.41236558892993"><ele>183.16666666666666</ele><time>2026-04-30T15:05:53Z</time></trkpt><trkpt lat="45.552091908468284" lon="10.412468300636949"><ele>183.0</ele><time>2026-04-30T15:05:55Z</time></trkpt><trkpt lat="45.552140735222885" lon="10.412546743075813"><ele>184.0</ele><time>2026-04-30T15:05:57Z</time></trkpt><trkpt lat="45.552194852373894" lon="10.412626006877804"><ele>185.0</ele><time>2026-04-30T15:05:59Z</time></trkpt><trkpt lat="45.55226168597473" lon="10.412719476361428"><ele>186.0</ele><time>2026-04-30T15:06:01Z</time></trkpt><trkpt lat="45.55233088299302" lon="10.412814406749058"><ele>187.0</ele><time>2026-04-30T15:06:03Z</time></trkpt><trkpt lat="45.55241817588434" lon="10.412910188400557"><ele>188.0</ele><time>2026-04-30T15:06:05Z</time></trkpt><trkpt lat="45.55246784266815" lon="10.413015826606655"><ele>188.0</ele><time>2026-04-30T15:06:07Z</time></trkpt><trkpt lat="45.55251033843678" lon="10.413097218614386"><ele>188.0</ele><time>2026-04-30T15:06:09Z</time></trkpt><trkpt lat="45.552504140232045" lon="10.41321292966715"><ele>188.0</ele><time>2026-04-30T15:06:12Z</time></trkpt><trkpt lat="45.55243635885105" lon="10.413288644957925"><ele>188.0</ele><time>2026-04-30T15:06:15Z</time></trkpt><trkpt lat="45.55239435115407" lon="10.413368606782196"><ele>188.0</ele><time>2026-04-30T15:06:17Z</time></trkpt><trkpt lat="45.55232280370893" lon="10.413427720732951"><ele>188.0</ele><time>2026-04-30T15:06:20Z</time></trkpt><trkpt lat="45.55226365589594" lon="10.41351092536843"><ele>188.0</ele><time>2026-04-30T15:06:22Z</time></trkpt><trkpt lat="45.552203125332575" lon="10.413603174303455"><ele>188.0</ele><time>2026-04-30T15:06:24Z</time></trkpt><trkpt lat="45.552147479422054" lon="10.41371513681983"><ele>188.0</ele><time>2026-04-30T15:06:26Z</time></trkpt><trkpt lat="45.5520984006096" lon="10.413837119171031"><ele>188.0</ele><time>2026-04-30T15:06:28Z</time></trkpt><trkpt lat="45.55205884182004" lon="10.413977292096899"><ele>188.0</ele><time>2026-04-30T15:06:30Z</time></trkpt><trkpt lat="45.55203080380071" lon="10.414115405000262"><ele>188.0</ele><time>2026-04-30T15:06:32Z</time></trkpt><trkpt lat="45.5520075260178" lon="10.414255378785597"><ele>188.0</ele><time>2026-04-30T15:06:34Z</time></trkpt><trkpt lat="45.551985563096785" lon="10.414399836033168"><ele>188.0</ele><time>2026-04-30T15:06:36Z</time></trkpt><trkpt lat="45.55196419093638" lon="10.414548969101368"><ele>188.0</ele><time>2026-04-30T15:06:38Z</time></trkpt><trkpt lat="45.55196088507939" lon="10.414686275938616"><ele>188.0</ele><time>2026-04-30T15:06:40Z</time></trkpt><trkpt lat="45.551928003004285" lon="10.414811743500016"><ele>187.83333333333331</ele><time>2026-04-30T15:06:42Z</time></trkpt><trkpt lat="45.551914942423096" lon="10.414924339748806"><ele>187.66666666666666</ele><time>2026-04-30T15:06:44Z</time></trkpt><trkpt lat="45.55190146595762" lon="10.415040521354275"><ele>187.5</ele><time>2026-04-30T15:06:46Z</time></trkpt><trkpt lat="45.551884282098484" lon="10.415167639173253"><ele>187.33333333333334</ele><time>2026-04-30T15:06:48Z</time></trkpt><trkpt lat="45.55186442016647" lon="10.415296425268423"><ele>187.16666666666669</ele><time>2026-04-30T15:06:50Z</time></trkpt><trkpt lat="45.551839139689264" lon="10.415433070755991"><ele>187.0</ele><time>2026-04-30T15:06:52Z</time></trkpt><trkpt lat="45.55180828351911" lon="10.415566917591462"><ele>186.8</ele><time>2026-04-30T15:06:54Z</time></trkpt><trkpt lat="45.5517719845053" lon="10.41569397809086"><ele>186.6</ele><time>2026-04-30T15:06:56Z</time></trkpt><trkpt lat="45.55175072451982" lon="10.415831346117082"><ele>186.4</ele><time>2026-04-30T15:06:58Z</time></trkpt><trkpt lat="45.55171315168412" lon="10.415960333674397"><ele>186.20000000000002</ele><time>2026-04-30T15:07:00Z</time></trkpt><trkpt lat="45.55167729034212" lon="10.416079541505514"><ele>186.0</ele><time>2026-04-30T15:07:02Z</time></trkpt><trkpt lat="45.551679192241075" lon="10.416200509780237"><ele>186.00000000000003</ele><time>2026-04-30T15:07:04Z</time></trkpt><trkpt lat="45.55167486303089" lon="10.41630308648792"><ele>186.0</ele><time>2026-04-30T15:07:06Z</time></trkpt><trkpt lat="45.5516603021653" lon="10.416407262123863"><ele>186.0</ele><time>2026-04-30T15:07:09Z</time></trkpt><trkpt lat="45.55168297092438" lon="10.41650601708155"><ele>186.0</ele><time>2026-04-30T15:07:16Z</time></trkpt><trkpt lat="45.5516725031319" lon="10.416608924518417"><ele>186.0</ele><time>2026-04-30T15:07:19Z</time></trkpt><trkpt lat="45.551654003202245" lon="10.416702443050353"><ele>186.00000000000003</ele><time>2026-04-30T15:07:22Z</time></trkpt><trkpt lat="45.55163163646903" lon="10.416817847925163"><ele>186.0</ele><time>2026-04-30T15:07:25Z</time></trkpt><trkpt lat="45.55160142407218" lon="10.416906186231415"><ele>186.0</ele><time>2026-04-30T15:07:28Z</time></trkpt><trkpt lat="45.55160082481753" lon="10.417019689404798"><ele>186.0</ele><time>2026-04-30T15:07:31Z</time></trkpt><trkpt lat="45.55157069105761" lon="10.41712540079625"><ele>186.0</ele><time>2026-04-30T15:07:34Z</time></trkpt><trkpt lat="45.55157171581787" lon="10.417220692492272"><ele>186.0</ele><time>2026-04-30T15:07:37Z</time></trkpt><trkpt lat="45.55155361240755" lon="10.41734275975738"><ele>186.0</ele><time>2026-04-30T15:07:40Z</time></trkpt><trkpt lat="45.551541015691164" lon="10.417434095469655"><ele>186.0</ele><time>2026-04-30T15:07:42Z</time></trkpt><trkpt lat="45.55151941502081" lon="10.41753433246334"><ele>186.42857142857144</ele><time>2026-04-30T15:07:44Z</time></trkpt><trkpt lat="45.551495670089466" lon="10.41763378044597"><ele>186.85714285714286</ele><time>2026-04-30T15:07:46Z</time></trkpt><trkpt lat="45.55144786269609" lon="10.417698974900715"><ele>187.28571428571428</ele><time>2026-04-30T15:07:48Z</time></trkpt><trkpt lat="45.5514146314094" lon="10.417787894815753"><ele>187.71428571428572</ele><time>2026-04-30T15:07:50Z</time></trkpt><trkpt lat="45.55136879467038" lon="10.417872579246662"><ele>188.14285714285714</ele><time>2026-04-30T15:07:52Z</time></trkpt><trkpt lat="45.551317674310845" lon="10.417952359272237"><ele>188.57142857142858</ele><time>2026-04-30T15:07:54Z</time></trkpt><trkpt lat="45.55126971889934" lon="10.418041850683604"><ele>189.0</ele><time>2026-04-30T15:07:56Z</time></trkpt><trkpt lat="45.551213752177944" lon="10.418137235343007"><ele>189.16666666666666</ele><time>2026-04-30T15:07:58Z</time></trkpt><trkpt lat="45.551164987479936" lon="10.418232976449502"><ele>189.33333333333334</ele><time>2026-04-30T15:08:00Z</time></trkpt><trkpt lat="45.55111398713517" lon="10.418306924373288"><ele>189.5</ele><time>2026-04-30T15:08:02Z</time></trkpt><trkpt lat="45.551055261515764" lon="10.418385051376577"><ele>189.66666666666669</ele><time>2026-04-30T15:08:04Z</time></trkpt><trkpt lat="45.55100831417698" lon="10.418466099320662"><ele>189.83333333333334</ele><time>2026-04-30T15:08:06Z</time></trkpt><trkpt lat="45.55095017836192" lon="10.418547679534376"><ele>190.0</ele><time>2026-04-30T15:08:08Z</time></trkpt><trkpt lat="45.55088517485256" lon="10.41864549301834"><ele>190.0</ele><time>2026-04-30T15:08:10Z</time></trkpt><trkpt lat="45.55081966398741" lon="10.418737177391082"><ele>190.0</ele><time>2026-04-30T15:08:12Z</time></trkpt><trkpt lat="45.550746115392506" lon="10.418838081010612"><ele>190.0</ele><time>2026-04-30T15:08:14Z</time></trkpt><trkpt lat="45.55067683414563" lon="10.4189419591851"><ele>190.0</ele><time>2026-04-30T15:08:16Z</time></trkpt><trkpt lat="45.550611270106394" lon="10.419039436654227"><ele>190.0</ele><time>2026-04-30T15:08:18Z</time></trkpt><trkpt lat="45.55054314316207" lon="10.419135142308587"><ele>190.0</ele><time>2026-04-30T15:08:20Z</time></trkpt><trkpt lat="45.550481001376134" lon="10.419218289983577"><ele>190.0</ele><time>2026-04-30T15:08:22Z</time></trkpt><trkpt lat="45.55042169775055" lon="10.419299940130166"><ele>190.0</ele><time>2026-04-30T15:08:24Z</time></trkpt><trkpt lat="45.550367303789955" lon="10.419391018814832"><ele>190.0</ele><time>2026-04-30T15:08:26Z</time></trkpt><trkpt lat="45.550305923149" lon="10.419481790433231"><ele>190.0</ele><time>2026-04-30T15:08:28Z</time></trkpt><trkpt lat="45.55024171845901" lon="10.419585688141034"><ele>190.0</ele><time>2026-04-30T15:08:30Z</time></trkpt><trkpt lat="45.55017503899242" lon="10.41968476335163"><ele>190.0</ele><time>2026-04-30T15:08:32Z</time></trkpt><trkpt lat="45.55010927060011" lon="10.419775772653527"><ele>190.0</ele><time>2026-04-30T15:08:34Z</time></trkpt><trkpt lat="45.5500472531634" lon="10.41984488211122"><ele>190.0</ele><time>2026-04-30T15:08:36Z</time></trkpt><trkpt lat="45.54999589396948" lon="10.41991861941933"><ele>190.0</ele><time>2026-04-30T15:08:38Z</time></trkpt><trkpt lat="45.54985466943662" lon="10.419812563147225"><ele>190.0</ele><time>2026-04-30T15:08:45Z</time></trkpt><trkpt lat="45.54978363782924" lon="10.419817831835488"><ele>190.0</ele><time>2026-04-30T15:08:48Z</time></trkpt><trkpt lat="45.54972403592506" lon="10.419868767917563"><ele>190.0</ele><time>2026-04-30T15:08:52Z</time></trkpt><trkpt lat="45.549716593709604" lon="10.419972101146435"><ele>190.0</ele><time>2026-04-30T15:09:01Z</time></trkpt></trkseg></trk></gpx>